Time,TemperatureF,DewpointF,PressureIn,WindDirection,WindDirectionDegrees,WindSpeedMPH,WindSpeedGustMPH,Humidity,HourlyPrecipIn,Conditions,Clouds,dailyrainin,SoftwareType,DateUTC
2013-08-25 00:03:00,78.3,78.3,30.12,SSW,198,0.0,21.1,100,0.01,,SKC,0.01,VWS V14.01,2013-08-25 04:03:00,
2013-08-25 00:04:00,78.2,78.2,30.11,SSW,198,0.0,21.1,100,0.01,,SKC,0.01,VWS V14.01,2013-08-25 04:04:00,
2013-08-25 00:05:00,78.1,78.1,30.11,SSW,198,0.0,21.1,100,0.01,,SKC,0.01,VWS V14.01,2013-08-25 04:05:00,
2013-08-25 00:08:00,77.8,77.8,30.12,SSW,198,0.0,21.1,100,0.01,,SKC,0.01,VWS V14.01,2013-08-25 04:08:00,
2013-08-25 00:09:00,77.7,77.7,30.12,North,359,0.7,21.1,100,0.01,,SKC,0.01,VWS V14.01,2013-08-25 04:09:00,
2013-08-25 00:10:00,77.5,77.5,30.12,North,359,0.0,21.1,100,0.01,,SKC,0.01,VWS V14.01,2013-08-25 04:10:00,
2013-08-25 00:12:00,77.3,77.3,30.12,South,173,0.0,21.1,100,0.01,,SKC,0.01,VWS V14.01,2013-08-25 04:12:00,
2013-08-25 00:13:00,77.3,77.3,30.12,South,173,0.0,21.1,100,0.01,,SKC,0.01,VWS V14.01,2013-08-25 04:13:00,
2013-08-25 00:14:00,77.2,77.2,30.12,South,173,0.0,21.1,100,0.01,,SKC,0.01,VWS V14.01,2013-08-25 04:14:00,
2013-08-25 00:15:00,77.2,77.2,30.12,South,173,0.0,21.1,100,0.01,,SKC,0.01,VWS V14.01,2013-08-25 04:15:00,
2013-08-25 00:18:00,76.9,77.0,30.12,South,173,0.0,21.1,100,0.01,,SKC,0.01,VWS V14.01,2013-08-25 04:18:00,
2013-08-25 00:19:00,76.9,76.9,30.12,South,173,0.0,21.1,100,0.01,,SKC,0.01,VWS V14.01,2013-08-25 04:19:00,
2013-08-25 00:20:00,76.8,76.8,30.12,South,173,0.0,21.1,100,0.01,,SKC,0.01,VWS V14.01,2013-08-25 04:20:00,
2013-08-25 00:23:00,76.7,76.7,30.12,South,173,0.0,21.1,100,0.01,,SKC,0.01,VWS V14.01,2013-08-25 04:23:00,
2013-08-25 00:24:00,76.5,76.5,30.12,South,173,0.0,21.1,100,0.01,,SKC,0.01,VWS V14.01,2013-08-25 04:24:00,
2013-08-25 00:25:00,76.5,76.5,30.12,South,173,0.0,21.1,100,0.01,,SKC,0.01,VWS V14.01,2013-08-25 04:25:00,
2013-08-25 00:28:00,76.3,76.3,30.12,South,173,0.0,21.1,100,0.01,,SKC,0.01,VWS V14.01,2013-08-25 04:28:00,
2013-08-25 00:29:00,76.3,76.3,30.12,South,173,0.0,21.1,100,0.01,,SKC,0.01,VWS V14.01,2013-08-25 04:29:00,
2013-08-25 00:30:00,76.2,76.2,30.12,South,173,0.0,21.1,100,0.01,,SKC,0.01,VWS V14.01,2013-08-25 04:30:00,
2013-08-25 00:33:00,76.0,76.0,30.12,South,173,0.0,21.1,100,0.01,,SKC,0.01,VWS V14.01,2013-08-25 04:33:00,
2013-08-25 00:34:00,76.1,76.1,30.12,South,173,0.0,21.1,100,0.01,,SKC,0.01,VWS V14.01,2013-08-25 04:34:00,
2013-08-25 00:35:00,76.0,76.0,30.12,South,173,0.0,21.1,100,0.01,,SKC,0.01,VWS V14.01,2013-08-25 04:35:00,
2013-08-25 00:36:00,76.0,76.0,30.12,South,173,0.0,21.1,100,0.01,,SKC,0.01,VWS V14.01,2013-08-25 04:36:00,
2013-08-25 00:39:00,75.9,75.9,30.12,South,173,0.0,21.1,100,0.01,,SKC,0.01,VWS V14.01,2013-08-25 04:39:00,
2013-08-25 00:40:00,75.9,75.9,30.12,South,173,0.0,21.1,100,0.01,,SKC,0.01,VWS V14.01,2013-08-25 04:40:00,
2013-08-25 00:41:00,75.9,76.0,30.12,South,173,0.0,21.1,100,0.01,,SKC,0.01,VWS V14.01,2013-08-25 04:41:00,
2013-08-25 00:44:00,75.9,75.9,30.12,South,173,0.0,21.1,100,0.01,,SKC,0.01,VWS V14.01,2013-08-25 04:44:00,
2013-08-25 00:45:00,75.9,75.9,30.12,South,173,0.0,21.1,100,0.01,,SKC,0.01,VWS V14.01,2013-08-25 04:45:00,
2013-08-25 00:46:00,75.9,75.9,30.12,South,173,0.0,21.1,100,0.01,,SKC,0.01,VWS V14.01,2013-08-25 04:46:00,
2013-08-25 00:49:00,75.8,75.8,30.12,South,173,0.0,21.1,100,0.01,,SKC,0.01,VWS V14.01,2013-08-25 04:49:00,
2013-08-25 00:50:00,75.8,75.8,30.12,South,173,0.0,21.1,100,0.01,,SKC,0.01,VWS V14.01,2013-08-25 04:50:00,
2013-08-25 00:51:00,75.7,75.7,30.12,South,173,0.0,21.1,100,0.01,,SKC,0.01,VWS V14.01,2013-08-25 04:51:00,
2013-08-25 00:54:00,75.6,75.6,30.12,South,173,0.0,21.1,100,0.01,,SKC,0.01,VWS V14.01,2013-08-25 04:54:00,
2013-08-25 00:55:00,75.4,75.4,30.12,South,173,0.0,21.1,100,0.01,,SKC,0.01,VWS V14.01,2013-08-25 04:55:00,
2013-08-25 00:56:00,75.4,75.4,30.12,South,173,0.0,21.1,100,0.01,,SKC,0.01,VWS V14.01,2013-08-25 04:56:00,
2013-08-25 00:59:00,75.2,75.2,30.12,South,173,0.0,21.1,100,0.01,,SKC,0.01,VWS V14.01,2013-08-25 04:59:00,
2013-08-25 01:00:00,75.2,75.2,30.12,South,173,0.0,21.1,100,0.01,,SKC,0.01,VWS V14.01,2013-08-25 05:00:00,
2013-08-25 01:01:00,75.1,75.1,30.12,South,173,0.0,0.0,100,0.00,,SKC,0.01,VWS V14.01,2013-08-25 05:01:00,
2013-08-25 01:02:00,74.0,74.0,30.12,South,173,0.0,0.0,100,0.00,,SKC,0.00,VWS V14.01,2013-08-25 05:02:00,
2013-08-25 01:03:00,74.0,74.0,30.12,South,173,0.0,0.0,100,0.00,,SKC,0.00,VWS V14.01,2013-08-25 05:03:00,
2013-08-25 01:04:00,75.1,75.1,30.12,South,173,0.0,0.0,100,0.00,,SKC,0.01,VWS V14.01,2013-08-25 05:04:00,
2013-08-25 01:05:00,75.1,75.1,30.12,South,173,0.0,0.0,100,0.00,,SKC,0.01,VWS V14.01,2013-08-25 05:05:00,
2013-08-25 01:06:00,75.1,75.1,30.12,South,173,0.0,0.0,100,0.00,,SKC,0.01,VWS V14.01,2013-08-25 05:06:00,
2013-08-25 01:09:00,75.0,75.0,30.11,South,173,0.0,0.0,100,0.00,,SKC,0.01,VWS V14.01,2013-08-25 05:09:00,
2013-08-25 01:10:00,75.0,75.0,30.11,South,173,0.0,0.0,100,0.00,,SKC,0.01,VWS V14.01,2013-08-25 05:10:00,
2013-08-25 01:11:00,75.0,75.0,30.11,South,173,0.0,0.0,100,0.00,,SKC,0.01,VWS V14.01,2013-08-25 05:11:00,
2013-08-25 01:14:00,74.9,74.9,30.11,South,173,0.0,0.0,100,0.00,,SKC,0.01,VWS V14.01,2013-08-25 05:14:00,
2013-08-25 01:15:00,74.9,74.9,30.11,South,173,0.0,0.0,100,0.00,,SKC,0.01,VWS V14.01,2013-08-25 05:15:00,
2013-08-25 01:16:00,74.8,74.8,30.12,South,173,0.0,0.0,100,0.00,,SKC,0.01,VWS V14.01,2013-08-25 05:16:00,
2013-08-25 01:17:00,74.8,74.8,30.12,South,173,0.0,0.0,100,0.00,,SKC,0.01,VWS V14.01,2013-08-25 05:17:00,
2013-08-25 01:19:00,74.7,74.7,30.12,South,173,0.0,0.0,100,0.00,,SKC,0.01,VWS V14.01,2013-08-25 05:19:00,
2013-08-25 01:20:00,74.7,74.7,30.11,South,173,0.0,0.0,100,0.00,,SKC,0.01,VWS V14.01,2013-08-25 05:20:00,
2013-08-25 01:21:00,74.6,74.6,30.11,South,173,0.0,0.0,100,0.00,,SKC,0.01,VWS V14.01,2013-08-25 05:21:00,
2013-08-25 01:22:00,74.6,74.6,30.11,South,173,0.0,0.0,100,0.00,,SKC,0.01,VWS V14.01,2013-08-25 05:22:00,
2013-08-25 01:24:00,74.5,74.5,30.12,South,173,0.0,0.0,100,0.00,,SKC,0.01,VWS V14.01,2013-08-25 05:24:00,
2013-08-25 01:25:00,74.5,74.5,30.11,South,173,0.0,0.0,100,0.00,,SKC,0.01,VWS V14.01,2013-08-25 05:25:00,
2013-08-25 01:27:00,74.4,74.4,30.11,South,173,0.0,0.0,100,0.00,,SKC,0.01,VWS V14.01,2013-08-25 05:27:00,
2013-08-25 01:29:00,74.2,74.2,30.11,South,173,0.0,0.0,100,0.00,,SKC,0.01,VWS V14.01,2013-08-25 05:29:00,
2013-08-25 01:30:00,74.2,74.2,30.11,South,173,0.0,0.0,100,0.00,,SKC,0.01,VWS V14.01,2013-08-25 05:30:00,
2013-08-25 01:32:00,74.2,74.2,30.11,South,173,0.0,0.0,100,0.00,,SKC,0.01,VWS V14.01,2013-08-25 05:32:00,
2013-08-25 01:35:00,74.1,74.1,30.11,South,173,0.0,0.0,100,0.00,,SKC,0.01,VWS V14.01,2013-08-25 05:35:00,
2013-08-25 01:37:00,74.1,74.1,30.11,South,173,0.0,0.0,100,0.00,,SKC,0.01,VWS V14.01,2013-08-25 05:37:00,
2013-08-25 01:40:00,74.0,74.0,30.11,South,173,0.0,0.0,100,0.00,,SKC,0.01,VWS V14.01,2013-08-25 05:40:00,
2013-08-25 01:41:00,74.1,74.1,30.11,South,173,0.0,0.0,100,0.00,,SKC,0.01,VWS V14.01,2013-08-25 05:41:00,
2013-08-25 01:42:00,74.1,74.1,30.12,South,173,0.0,0.0,100,0.00,,SKC,0.01,VWS V14.01,2013-08-25 05:42:00,
2013-08-25 01:45:00,74.0,74.0,30.12,South,173,0.0,0.0,100,0.00,,SKC,0.01,VWS V14.01,2013-08-25 05:45:00,
2013-08-25 01:46:00,74.0,74.0,30.12,South,173,0.0,0.0,100,0.00,,SKC,0.01,VWS V14.01,2013-08-25 05:46:00,
2013-08-25 01:47:00,74.1,74.1,30.12,South,173,0.0,0.0,100,0.00,,SKC,0.01,VWS V14.01,2013-08-25 05:47:00,
2013-08-25 01:50:00,73.9,73.9,30.12,South,173,0.0,0.0,100,0.00,,SKC,0.01,VWS V14.01,2013-08-25 05:50:00,
2013-08-25 01:51:00,74.0,74.0,30.12,South,173,0.0,0.0,100,0.00,,SKC,0.01,VWS V14.01,2013-08-25 05:51:00,
2013-08-25 01:52:00,74.0,74.0,30.12,South,173,0.0,0.0,100,0.00,,SKC,0.01,VWS V14.01,2013-08-25 05:52:00,
2013-08-25 01:57:00,74.0,74.0,30.12,South,173,0.0,0.0,100,0.00,,SKC,0.00,VWS V14.01,2013-08-25 05:57:00,
2013-08-25 01:58:00,73.9,73.9,30.12,South,173,0.0,0.0,100,0.00,,SKC,0.00,VWS V14.01,2013-08-25 05:58:00,
2013-08-25 01:59:00,73.9,73.9,30.13,South,173,0.0,0.0,100,0.00,,SKC,0.00,VWS V14.01,2013-08-25 05:59:00,
2013-08-25 02:02:00,73.9,73.9,30.12,South,173,0.0,0.0,100,0.00,,SKC,0.00,VWS V14.01,2013-08-25 06:02:00,
2013-08-25 02:03:00,73.9,73.9,30.13,South,173,0.0,0.0,100,0.00,,SKC,0.00,VWS V14.01,2013-08-25 06:03:00,
2013-08-25 02:04:00,73.9,73.9,30.13,South,173,0.0,0.0,100,0.00,,SKC,0.00,VWS V14.01,2013-08-25 06:04:00,
2013-08-25 02:08:00,73.9,73.9,30.13,South,173,0.0,0.0,100,0.00,,SKC,0.00,VWS V14.01,2013-08-25 06:08:00,
2013-08-25 02:09:00,73.9,73.9,30.13,South,173,0.0,0.0,100,0.00,,SKC,0.00,VWS V14.01,2013-08-25 06:09:00,
2013-08-25 02:13:00,73.9,73.9,30.13,South,173,0.0,0.0,100,0.00,,SKC,0.00,VWS V14.01,2013-08-25 06:13:00,
2013-08-25 02:14:00,73.8,73.8,30.13,South,173,0.0,0.0,100,0.00,,SKC,0.00,VWS V14.01,2013-08-25 06:14:00,
2013-08-25 02:18:00,73.9,73.9,30.13,South,173,0.0,0.0,100,0.00,,SKC,0.00,VWS V14.01,2013-08-25 06:18:00,
2013-08-25 02:19:00,73.8,73.8,30.13,South,173,0.0,0.0,100,0.00,,SKC,0.00,VWS V14.01,2013-08-25 06:19:00,
2013-08-25 02:23:00,73.9,73.9,30.13,South,173,0.0,0.0,100,0.00,,SKC,0.00,VWS V14.01,2013-08-25 06:23:00,
2013-08-25 02:24:00,73.8,73.8,30.13,South,173,0.0,0.0,100,0.00,,SKC,0.00,VWS V14.01,2013-08-25 06:24:00,
2013-08-25 02:28:00,73.8,73.8,30.13,South,173,0.0,0.0,100,0.00,,SKC,0.00,VWS V14.01,2013-08-25 06:28:00,
2013-08-25 02:29:00,73.9,73.9,30.13,South,173,0.0,0.0,100,0.00,,SKC,0.00,VWS V14.01,2013-08-25 06:29:00,
2013-08-25 02:33:00,73.9,73.8,30.13,South,173,0.0,0.0,100,0.00,,SKC,0.00,VWS V14.01,2013-08-25 06:33:00,
2013-08-25 02:34:00,73.9,73.8,30.13,South,173,0.0,0.0,100,0.00,,SKC,0.00,VWS V14.01,2013-08-25 06:34:00,
2013-08-25 02:38:00,73.9,73.9,30.13,South,173,0.0,0.0,100,0.00,,SKC,0.00,VWS V14.01,2013-08-25 06:38:00,
2013-08-25 02:39:00,73.9,73.9,30.13,South,173,0.0,0.0,100,0.00,,SKC,0.00,VWS V14.01,2013-08-25 06:39:00,
2013-08-25 02:43:00,73.9,73.9,30.13,South,173,0.0,0.0,100,0.00,,SKC,0.00,VWS V14.01,2013-08-25 06:43:00,
2013-08-25 02:44:00,74.0,74.0,30.13,South,173,0.0,0.0,100,0.00,,SKC,0.00,VWS V14.01,2013-08-25 06:44:00,
2013-08-25 02:45:00,74.0,74.0,30.13,South,173,0.0,0.0,100,0.00,,SKC,0.00,VWS V14.01,2013-08-25 06:45:00,
2013-08-25 02:49:00,74.0,74.0,30.13,South,173,0.0,0.0,100,0.00,,SKC,0.00,VWS V14.01,2013-08-25 06:49:00,
2013-08-25 02:50:00,74.1,74.1,30.13,South,173,0.0,0.0,100,0.00,,SKC,0.00,VWS V14.01,2013-08-25 06:50:00,
2013-08-25 02:54:00,74.1,74.1,30.13,South,173,0.0,0.0,100,0.00,,SKC,0.00,VWS V14.01,2013-08-25 06:54:00,
2013-08-25 02:55:00,74.0,74.0,30.13,South,173,0.0,0.0,100,0.00,,SKC,0.00,VWS V14.01,2013-08-25 06:55:00,
2013-08-25 02:59:00,74.1,74.1,30.13,South,173,0.0,0.0,100,0.00,,SKC,0.00,VWS V14.01,2013-08-25 06:59:00,
2013-08-25 03:00:00,74.1,74.1,30.13,South,173,0.0,0.0,100,0.00,,SKC,0.00,VWS V14.01,2013-08-25 07:00:00,
2013-08-25 03:04:00,74.1,74.1,30.13,South,173,0.0,0.0,100,0.00,,SKC,0.00,VWS V14.01,2013-08-25 07:04:00,
2013-08-25 03:05:00,74.1,74.1,30.13,South,173,0.0,0.0,100,0.00,,SKC,0.00,VWS V14.01,2013-08-25 07:05:00,
2013-08-25 03:09:00,74.2,74.2,30.13,South,173,0.0,0.0,100,0.00,,SKC,0.00,VWS V14.01,2013-08-25 07:09:00,
2013-08-25 03:10:00,74.2,74.2,30.13,South,173,0.0,0.0,100,0.00,,SKC,0.00,VWS V14.01,2013-08-25 07:10:00,
2013-08-25 03:11:00,74.2,74.2,30.13,South,173,0.0,0.0,100,0.00,,SKC,0.00,VWS V14.01,2013-08-25 07:11:00,
2013-08-25 03:14:00,74.3,74.3,30.13,South,173,0.0,0.0,100,0.00,,SKC,0.00,VWS V14.01,2013-08-25 07:14:00,
2013-08-25 03:15:00,74.4,74.4,30.13,South,173,0.0,0.0,100,0.00,,SKC,0.00,VWS V14.01,2013-08-25 07:15:00,
2013-08-25 03:16:00,74.4,74.4,30.13,South,173,0.0,0.0,100,0.00,,SKC,0.00,VWS V14.01,2013-08-25 07:16:00,
2013-08-25 03:19:00,74.5,74.5,30.12,South,173,0.0,0.0,100,0.00,,SKC,0.00,VWS V14.01,2013-08-25 07:19:00,
2013-08-25 03:20:00,74.5,74.5,30.13,South,173,0.0,0.0,100,0.00,,SKC,0.00,VWS V14.01,2013-08-25 07:20:00,
2013-08-25 03:21:00,74.5,74.5,30.13,South,173,0.0,0.0,100,0.00,,SKC,0.00,VWS V14.01,2013-08-25 07:21:00,
2013-08-25 03:25:00,74.6,74.6,30.12,North,359,0.0,9.1,100,0.00,,SKC,0.00,VWS V14.01,2013-08-25 07:25:00,
2013-08-25 03:26:00,74.7,74.7,30.12,North,359,0.0,9.1,100,0.00,,SKC,0.00,VWS V14.01,2013-08-25 07:26:00,
2013-08-25 03:30:00,74.8,74.8,30.12,South,181,0.0,9.1,100,0.00,,SKC,0.00,VWS V14.01,2013-08-25 07:30:00,
2013-08-25 03:31:00,74.8,74.8,30.12,South,181,0.0,9.1,100,0.00,,SKC,0.00,VWS V14.01,2013-08-25 07:31:00,
2013-08-25 03:35:00,74.9,74.9,30.12,South,181,0.0,9.1,100,0.00,,SKC,0.00,VWS V14.01,2013-08-25 07:35:00,
2013-08-25 03:36:00,74.9,74.9,30.12,South,181,0.0,9.1,100,0.00,,SKC,0.00,VWS V14.01,2013-08-25 07:36:00,
2013-08-25 03:40:00,75.0,75.0,30.12,South,179,0.0,9.1,100,0.00,,SKC,0.00,VWS V14.01,2013-08-25 07:40:00,
2013-08-25 03:41:00,75.1,75.1,30.12,North,359,0.6,9.1,100,0.00,,SKC,0.00,VWS V14.01,2013-08-25 07:41:00,
2013-08-25 03:45:00,75.2,75.2,30.11,South,179,0.0,9.8,100,0.00,,SKC,0.00,VWS V14.01,2013-08-25 07:45:00,
2013-08-25 03:46:00,75.3,75.3,30.11,South,179,0.0,9.8,100,0.00,,SKC,0.00,VWS V14.01,2013-08-25 07:46:00,
2013-08-25 03:50:00,75.3,75.3,30.11,South,179,0.0,9.8,100,0.00,,SKC,0.00,VWS V14.01,2013-08-25 07:50:00,
2013-08-25 03:51:00,75.3,75.3,30.11,South,179,0.0,9.8,100,0.00,,SKC,0.00,VWS V14.01,2013-08-25 07:51:00,
2013-08-25 03:52:00,75.4,75.4,30.11,SSW,197,3.7,9.8,100,0.00,,SKC,0.00,VWS V14.01,2013-08-25 07:52:00,
2013-08-25 03:56:00,75.5,75.5,30.11,South,181,2.9,9.8,100,0.00,,SKC,0.00,VWS V14.01,2013-08-25 07:56:00,
2013-08-25 03:57:00,75.5,75.5,30.11,South,181,0.0,9.8,100,0.00,,SKC,0.00,VWS V14.01,2013-08-25 07:57:00,
2013-08-25 04:01:00,75.7,75.7,30.11,South,181,0.0,9.8,100,0.00,,SKC,0.00,VWS V14.01,2013-08-25 08:01:00,
2013-08-25 04:02:00,75.7,75.7,30.11,South,181,0.0,9.8,100,0.00,,SKC,0.00,VWS V14.01,2013-08-25 08:02:00,
2013-08-25 04:06:00,75.8,75.8,30.10,South,181,0.0,9.8,100,0.00,,SKC,0.00,VWS V14.01,2013-08-25 08:06:00,
2013-08-25 04:07:00,75.8,75.8,30.10,South,181,0.0,9.8,100,0.00,,SKC,0.00,VWS V14.01,2013-08-25 08:07:00,
2013-08-25 04:11:00,76.0,76.0,30.10,South,181,0.0,9.8,100,0.00,,SKC,0.00,VWS V14.01,2013-08-25 08:11:00,
2013-08-25 04:12:00,75.9,75.9,30.10,South,181,0.0,9.8,100,0.00,,SKC,0.00,VWS V14.01,2013-08-25 08:12:00,
2013-08-25 04:16:00,76.1,76.1,30.10,South,181,0.0,9.8,100,0.00,,SKC,0.00,VWS V14.01,2013-08-25 08:16:00,
2013-08-25 04:17:00,76.2,76.2,30.10,South,181,0.0,9.8,100,0.00,,SKC,0.00,VWS V14.01,2013-08-25 08:17:00,
2013-08-25 04:21:00,76.3,76.3,30.10,SSW,195,2.2,9.8,100,0.00,,SKC,0.00,VWS V14.01,2013-08-25 08:21:00,
2013-08-25 04:22:00,76.3,76.3,30.10,South,191,2.4,9.8,100,0.00,,SKC,0.00,VWS V14.01,2013-08-25 08:22:00,
2013-08-25 04:26:00,76.7,76.7,30.10,SSE,162,4.7,9.8,100,0.00,,SKC,0.00,VWS V14.01,2013-08-25 08:26:00,
2013-08-25 04:27:00,76.8,76.8,30.10,SSE,167,5.3,9.8,100,0.00,,SKC,0.00,VWS V14.01,2013-08-25 08:27:00,
2013-08-25 04:31:00,77.0,77.0,30.10,South,169,6.9,10.7,100,0.00,,SKC,0.00,VWS V14.01,2013-08-25 08:31:00,
2013-08-25 04:32:00,77.0,77.0,30.10,SSE,160,5.2,10.7,100,0.00,,SKC,0.00,VWS V14.01,2013-08-25 08:32:00,
2013-08-25 04:33:00,76.9,76.9,30.10,SSW,193,8.2,10.7,100,0.00,,SKC,0.00,VWS V14.01,2013-08-25 08:33:00,
2013-08-25 04:36:00,77.0,77.0,30.10,South,173,0.0,10.7,100,0.00,,SKC,0.00,VWS V14.01,2013-08-25 08:36:00,
2013-08-25 04:37:00,77.0,77.1,30.10,South,173,0.0,10.7,100,0.00,,SKC,0.00,VWS V14.01,2013-08-25 08:37:00,
2013-08-25 04:38:00,77.1,77.1,30.10,South,173,0.0,10.7,100,0.00,,SKC,0.00,VWS V14.01,2013-08-25 08:38:00,
2013-08-25 04:41:00,77.2,77.2,30.10,North,359,0.0,10.7,100,0.00,,SKC,0.00,VWS V14.01,2013-08-25 08:41:00,
2013-08-25 04:42:00,77.3,77.3,30.10,North,359,1.7,10.7,100,0.00,,SKC,0.00,VWS V14.01,2013-08-25 08:42:00,
2013-08-25 04:43:00,77.2,77.2,30.10,North,359,0.0,10.7,100,0.00,,SKC,0.00,VWS V14.01,2013-08-25 08:43:00,
2013-08-25 04:46:00,77.3,77.3,30.09,North,359,6.0,10.7,100,0.00,,SKC,0.00,VWS V14.01,2013-08-25 08:46:00,
2013-08-25 04:47:00,77.3,77.3,30.09,South,170,0.0,10.7,100,0.00,,SKC,0.00,VWS V14.01,2013-08-25 08:47:00,
2013-08-25 04:48:00,77.4,77.4,30.09,North,359,1.4,10.7,100,0.00,,SKC,0.00,VWS V14.01,2013-08-25 08:48:00,
2013-08-25 04:51:00,77.4,77.4,30.09,SSW,197,0.0,11.9,100,0.00,,SKC,0.00,VWS V14.01,2013-08-25 08:51:00,
2013-08-25 04:52:00,77.4,77.4,30.09,North,359,1.2,11.9,100,0.00,,SKC,0.00,VWS V14.01,2013-08-25 08:52:00,
2013-08-25 04:53:00,77.4,77.4,30.09,South,181,2.0,11.9,100,0.00,,SKC,0.00,VWS V14.01,2013-08-25 08:53:00,
2013-08-25 04:56:00,77.4,77.4,30.10,North,359,1.9,11.9,100,0.00,,SKC,0.00,VWS V14.01,2013-08-25 08:56:00,
2013-08-25 04:57:00,77.3,77.3,30.09,North,359,0.2,11.9,100,0.00,,SKC,0.00,VWS V14.01,2013-08-25 08:57:00,
2013-08-25 04:58:00,77.3,77.3,30.09,North,359,0.2,11.9,100,0.00,,SKC,0.00,VWS V14.01,2013-08-25 08:58:00,
2013-08-25 05:01:00,77.2,77.2,30.09,South,180,0.4,11.9,100,0.00,,SKC,0.00,VWS V14.01,2013-08-25 09:01:00,
2013-08-25 05:02:00,77.1,77.1,30.09,North,359,0.0,11.9,100,0.00,,SKC,0.00,VWS V14.01,2013-08-25 09:02:00,
2013-08-25 05:03:00,77.1,77.1,30.09,North,359,0.0,11.9,100,0.00,,SKC,0.00,VWS V14.01,2013-08-25 09:03:00,
2013-08-25 05:06:00,77.2,77.2,30.10,SSW,193,0.0,11.9,100,0.00,,SKC,0.00,VWS V14.01,2013-08-25 09:06:00,
2013-08-25 05:08:00,77.2,77.2,30.10,SSE,166,0.0,11.9,100,0.00,,SKC,0.00,VWS V14.01,2013-08-25 09:08:00,
2013-08-25 05:11:00,77.4,77.4,30.10,North,359,0.0,11.9,100,0.00,,SKC,0.00,VWS V14.01,2013-08-25 09:11:00,
2013-08-25 05:13:00,77.7,77.7,30.09,North,359,0.0,11.9,100,0.00,,SKC,0.00,VWS V14.01,2013-08-25 09:13:00,
2013-08-25 05:14:00,77.7,77.7,30.09,North,359,6.5,11.9,100,0.00,,SKC,0.00,VWS V14.01,2013-08-25 09:14:00,
2013-08-25 05:16:00,77.9,77.9,30.10,North,359,2.9,11.9,100,0.00,,SKC,0.00,VWS V14.01,2013-08-25 09:16:00,
2013-08-25 05:18:00,78.1,78.1,30.10,SSW,198,0.0,11.9,100,0.00,,SKC,0.00,VWS V14.01,2013-08-25 09:18:00,
2013-08-25 05:19:00,78.2,78.2,30.10,North,359,9.6,11.9,100,0.00,,SKC,0.00,VWS V14.01,2013-08-25 09:19:00,
2013-08-25 05:22:00,78.3,78.3,30.10,SSE,167,5.7,14.5,100,0.00,,SKC,0.00,VWS V14.01,2013-08-25 09:22:00,
2013-08-25 05:23:00,78.5,78.5,30.10,North,359,0.4,14.5,100,0.00,,SKC,0.00,VWS V14.01,2013-08-25 09:23:00,
2013-08-25 05:24:00,78.4,78.4,30.10,North,359,0.0,14.5,100,0.00,,SKC,0.00,VWS V14.01,2013-08-25 09:24:00,
2013-08-25 05:27:00,78.7,78.7,30.10,SSW,193,11.0,14.5,100,0.00,,SKC,0.00,VWS V14.01,2013-08-25 09:27:00,
2013-08-25 05:28:00,78.7,78.7,30.10,South,176,0.0,14.5,100,0.00,,SKC,0.00,VWS V14.01,2013-08-25 09:28:00,
2013-08-25 05:29:00,78.5,78.7,30.10,SSW,197,10.6,14.5,100,0.00,,SKC,0.00,VWS V14.01,2013-08-25 09:29:00,
2013-08-25 05:32:00,78.7,78.7,30.10,North,359,0.0,14.5,100,0.00,,SKC,0.00,VWS V14.01,2013-08-25 09:32:00,
2013-08-25 05:33:00,78.5,78.5,30.10,North,359,6.7,14.5,100,0.00,,SKC,0.00,VWS V14.01,2013-08-25 09:33:00,
2013-08-25 05:34:00,78.7,78.7,30.10,SSW,210,3.9,14.5,100,0.00,,SKC,0.00,VWS V14.01,2013-08-25 09:34:00,
2013-08-25 05:37:00,78.4,78.4,30.10,South,181,0.2,14.5,100,0.00,,SKC,0.00,VWS V14.01,2013-08-25 09:37:00,
2013-08-25 05:38:00,78.4,78.4,30.10,South,188,0.0,14.5,100,0.00,,SKC,0.00,VWS V14.01,2013-08-25 09:38:00,
2013-08-25 05:39:00,78.4,78.4,30.10,North,359,6.2,14.5,100,0.00,,SKC,0.00,VWS V14.01,2013-08-25 09:39:00,
2013-08-25 05:42:00,78.3,78.3,30.10,South,180,5.8,14.5,100,0.00,,SKC,0.00,VWS V14.01,2013-08-25 09:42:00,
2013-08-25 05:44:00,78.2,78.2,30.10,South,181,2.8,14.5,100,0.00,,SKC,0.00,VWS V14.01,2013-08-25 09:44:00,
2013-08-25 05:47:00,78.0,78.0,30.10,South,181,9.2,14.5,100,0.00,,SKC,0.00,VWS V14.01,2013-08-25 09:47:00,
2013-08-25 05:49:00,78.0,78.0,30.10,North,359,0.0,14.5,100,0.00,,SKC,0.00,VWS V14.01,2013-08-25 09:49:00,
2013-08-25 05:52:00,77.8,77.8,30.10,North,359,0.0,14.5,100,0.00,,SKC,0.00,VWS V14.01,2013-08-25 09:52:00,
2013-08-25 05:54:00,77.7,77.7,30.10,North,359,0.0,14.5,100,0.01,,SKC,0.01,VWS V14.01,2013-08-25 09:54:00,
2013-08-25 05:55:00,77.5,77.5,30.11,North,359,0.0,14.5,100,0.01,,SKC,0.01,VWS V14.01,2013-08-25 09:55:00,
2013-08-25 05:57:00,77.4,77.4,30.10,North,359,0.0,14.5,100,0.01,,SKC,0.01,VWS V14.01,2013-08-25 09:57:00,
2013-08-25 05:59:00,77.2,77.2,30.10,North,359,0.0,14.5,100,0.01,,SKC,0.01,VWS V14.01,2013-08-25 09:59:00,
2013-08-25 06:00:00,77.1,77.1,30.11,North,359,0.0,14.5,100,0.01,,SKC,0.01,VWS V14.01,2013-08-25 10:00:00,
2013-08-25 06:02:00,76.8,76.8,30.11,North,359,0.0,14.5,100,0.01,,SKC,0.01,VWS V14.01,2013-08-25 10:02:00,
2013-08-25 06:04:00,76.6,76.6,30.11,North,359,0.0,14.5,100,0.01,,SKC,0.01,VWS V14.01,2013-08-25 10:04:00,
2013-08-25 06:05:00,76.6,76.6,30.11,North,359,0.0,14.5,100,0.01,,SKC,0.01,VWS V14.01,2013-08-25 10:05:00,
2013-08-25 06:08:00,76.2,76.2,30.11,North,359,0.0,14.5,100,0.01,,SKC,0.01,VWS V14.01,2013-08-25 10:08:00,
2013-08-25 06:09:00,76.0,76.0,30.11,North,359,0.0,14.5,100,0.01,,SKC,0.01,VWS V14.01,2013-08-25 10:09:00,
2013-08-25 06:10:00,76.0,76.0,30.11,North,359,0.0,14.5,100,0.01,,SKC,0.01,VWS V14.01,2013-08-25 10:10:00,
2013-08-25 06:13:00,75.6,75.6,30.11,North,359,0.0,14.5,100,0.01,,SKC,0.01,VWS V14.01,2013-08-25 10:13:00,
2013-08-25 06:14:00,75.6,75.6,30.11,North,359,0.0,14.5,100,0.01,,SKC,0.01,VWS V14.01,2013-08-25 10:14:00,
2013-08-25 06:15:00,75.6,75.6,30.11,North,359,0.0,14.5,100,0.01,,SKC,0.01,VWS V14.01,2013-08-25 10:15:00,
2013-08-25 06:16:00,75.4,75.4,30.12,North,359,0.0,14.5,100,0.01,,SKC,0.01,VWS V14.01,2013-08-25 10:16:00,
2013-08-25 06:18:00,75.2,75.2,30.12,North,359,0.0,14.5,100,0.01,,SKC,0.01,VWS V14.01,2013-08-25 10:18:00,
2013-08-25 06:19:00,75.2,75.2,30.12,North,359,0.0,14.5,100,0.01,,SKC,0.01,VWS V14.01,2013-08-25 10:19:00,
2013-08-25 06:20:00,75.2,75.2,30.12,North,359,0.0,14.5,100,0.01,,SKC,0.01,VWS V14.01,2013-08-25 10:20:00,
2013-08-25 06:21:00,75.2,75.2,30.11,North,359,0.0,14.5,100,0.01,,SKC,0.01,VWS V14.01,2013-08-25 10:21:00,
2013-08-25 06:23:00,75.1,75.1,30.12,North,359,0.0,14.5,100,0.01,,SKC,0.01,VWS V14.01,2013-08-25 10:23:00,
2013-08-25 06:25:00,75.0,75.0,30.12,North,359,0.0,14.5,100,0.01,,SKC,0.01,VWS V14.01,2013-08-25 10:25:00,
2013-08-25 06:26:00,74.9,74.9,30.12,North,359,0.0,14.5,100,0.01,,SKC,0.01,VWS V14.01,2013-08-25 10:26:00,
2013-08-25 06:28:00,74.8,74.8,30.13,North,359,0.0,14.5,100,0.01,,SKC,0.01,VWS V14.01,2013-08-25 10:28:00,
2013-08-25 06:30:00,74.8,74.8,30.13,North,359,0.0,14.5,100,0.01,,SKC,0.01,VWS V14.01,2013-08-25 10:30:00,
2013-08-25 06:31:00,74.7,74.7,30.13,North,359,0.0,14.5,100,0.01,,SKC,0.01,VWS V14.01,2013-08-25 10:31:00,
2013-08-25 06:33:00,74.6,74.6,30.13,North,359,0.0,14.5,100,0.01,,SKC,0.01,VWS V14.01,2013-08-25 10:33:00,
2013-08-25 06:35:00,74.6,74.6,30.13,North,359,0.0,14.5,100,0.01,,SKC,0.01,VWS V14.01,2013-08-25 10:35:00,
2013-08-25 06:36:00,74.6,74.5,30.13,North,359,0.0,14.5,100,0.01,,SKC,0.01,VWS V14.01,2013-08-25 10:36:00,
2013-08-25 06:39:00,74.5,74.5,30.13,North,359,0.0,14.5,100,0.01,,SKC,0.01,VWS V14.01,2013-08-25 10:39:00,
2013-08-25 06:40:00,74.4,74.4,30.13,North,359,0.0,14.5,100,0.01,,SKC,0.01,VWS V14.01,2013-08-25 10:40:00,
2013-08-25 06:41:00,74.4,74.4,30.13,North,359,0.0,14.5,100,0.01,,SKC,0.01,VWS V14.01,2013-08-25 10:41:00,
2013-08-25 06:44:00,74.4,74.4,30.13,North,359,0.0,14.5,100,0.01,,SKC,0.01,VWS V14.01,2013-08-25 10:44:00,
2013-08-25 06:45:00,74.4,74.4,30.13,North,359,0.0,14.5,100,0.01,,SKC,0.01,VWS V14.01,2013-08-25 10:45:00,
2013-08-25 06:46:00,74.3,74.3,30.13,North,359,0.0,14.5,100,0.01,,SKC,0.01,VWS V14.01,2013-08-25 10:46:00,
2013-08-25 06:49:00,74.3,74.3,30.13,North,359,0.0,14.5,100,0.01,,SKC,0.01,VWS V14.01,2013-08-25 10:49:00,
2013-08-25 06:50:00,74.2,74.2,30.13,North,359,0.0,14.5,100,0.01,,SKC,0.01,VWS V14.01,2013-08-25 10:50:00,
2013-08-25 06:51:00,74.3,74.3,30.13,North,359,0.0,14.5,100,0.01,,SKC,0.01,VWS V14.01,2013-08-25 10:51:00,
2013-08-25 06:54:00,74.2,74.2,30.13,North,359,0.0,14.5,100,0.01,,SKC,0.01,VWS V14.01,2013-08-25 10:54:00,
2013-08-25 06:55:00,74.2,74.2,30.13,North,359,0.0,14.5,100,0.01,,SKC,0.01,VWS V14.01,2013-08-25 10:55:00,
2013-08-25 06:56:00,74.2,74.2,30.13,North,359,0.0,14.5,100,0.01,,SKC,0.01,VWS V14.01,2013-08-25 10:56:00,
2013-08-25 06:57:00,74.2,74.2,30.13,North,359,0.0,14.5,100,0.01,,SKC,0.01,VWS V14.01,2013-08-25 10:57:00,
2013-08-25 06:59:00,74.2,74.2,30.13,North,359,0.0,14.5,100,0.01,,SKC,0.01,VWS V14.01,2013-08-25 10:59:00,
2013-08-25 07:00:00,74.2,74.2,30.13,North,359,0.0,14.5,100,0.01,,SKC,0.01,VWS V14.01,2013-08-25 11:00:00,
2013-08-25 07:01:00,74.2,74.2,30.13,North,359,0.0,14.5,100,0.01,,SKC,0.01,VWS V14.01,2013-08-25 11:01:00,
2013-08-25 07:02:00,74.2,74.2,30.13,North,359,0.0,14.5,100,0.01,,SKC,0.01,VWS V14.01,2013-08-25 11:02:00,
2013-08-25 07:04:00,74.1,74.1,30.13,North,359,0.0,14.5,100,0.01,,SKC,0.01,VWS V14.01,2013-08-25 11:04:00,
2013-08-25 07:05:00,74.2,74.2,30.13,North,359,0.0,14.5,100,0.01,,SKC,0.01,VWS V14.01,2013-08-25 11:05:00,
2013-08-25 07:06:00,74.2,74.1,30.13,North,359,0.0,14.5,100,0.01,,SKC,0.01,VWS V14.01,2013-08-25 11:06:00,
2013-08-25 07:07:00,74.1,74.1,30.13,North,359,0.0,14.5,100,0.01,,SKC,0.01,VWS V14.01,2013-08-25 11:07:00,
2013-08-25 07:09:00,74.1,74.1,30.13,North,359,0.0,14.5,100,0.01,,SKC,0.01,VWS V14.01,2013-08-25 11:09:00,
2013-08-25 07:10:00,74.2,74.2,30.13,North,359,0.0,14.5,100,0.01,,SKC,0.01,VWS V14.01,2013-08-25 11:10:00,
2013-08-25 07:11:00,74.1,74.1,30.13,North,359,0.0,14.5,100,0.01,,SKC,0.01,VWS V14.01,2013-08-25 11:11:00,
2013-08-25 07:12:00,74.1,74.2,30.13,North,359,0.0,14.5,100,0.01,,SKC,0.01,VWS V14.01,2013-08-25 11:12:00,
2013-08-25 07:14:00,74.1,74.1,30.13,North,359,0.0,14.5,100,0.01,,SKC,0.01,VWS V14.01,2013-08-25 11:14:00,
2013-08-25 07:15:00,74.0,74.1,30.13,North,359,0.0,14.5,100,0.01,,SKC,0.01,VWS V14.01,2013-08-25 11:15:00,
2013-08-25 07:16:00,74.1,74.1,30.13,North,359,0.0,14.5,100,0.01,,SKC,0.01,VWS V14.01,2013-08-25 11:16:00,
2013-08-25 07:17:00,74.1,74.1,30.13,North,359,0.0,14.5,100,0.01,,SKC,0.01,VWS V14.01,2013-08-25 11:17:00,
2013-08-25 07:19:00,74.1,74.1,30.13,North,359,0.0,14.5,100,0.01,,SKC,0.01,VWS V14.01,2013-08-25 11:19:00,
2013-08-25 07:20:00,74.0,74.1,30.13,North,359,0.0,14.5,100,0.01,,SKC,0.01,VWS V14.01,2013-08-25 11:20:00,
2013-08-25 07:21:00,74.0,74.0,30.13,North,359,0.0,14.5,100,0.01,,SKC,0.01,VWS V14.01,2013-08-25 11:21:00,
2013-08-25 07:22:00,74.0,74.0,30.13,North,359,0.0,14.5,100,0.01,,SKC,0.01,VWS V14.01,2013-08-25 11:22:00,
2013-08-25 07:24:00,74.0,74.0,30.13,North,359,0.0,14.5,100,0.01,,SKC,0.01,VWS V14.01,2013-08-25 11:24:00,
2013-08-25 07:26:00,74.1,74.0,30.13,North,359,0.0,14.5,100,0.01,,SKC,0.01,VWS V14.01,2013-08-25 11:26:00,
2013-08-25 07:27:00,74.1,74.1,30.13,North,359,0.0,14.5,100,0.01,,SKC,0.01,VWS V14.01,2013-08-25 11:27:00,
2013-08-25 07:28:00,74.0,74.0,30.13,North,359,0.0,14.5,100,0.01,,SKC,0.01,VWS V14.01,2013-08-25 11:28:00,
2013-08-25 07:29:00,74.0,74.0,30.13,North,359,0.0,14.5,100,0.01,,SKC,0.01,VWS V14.01,2013-08-25 11:29:00,
2013-08-25 07:31:00,74.0,74.0,30.13,North,359,0.0,14.5,100,0.01,,SKC,0.01,VWS V14.01,2013-08-25 11:31:00,
2013-08-25 07:32:00,74.0,74.0,30.13,North,359,0.0,14.5,100,0.01,,SKC,0.01,VWS V14.01,2013-08-25 11:32:00,
2013-08-25 07:33:00,73.9,73.9,30.13,North,359,0.0,14.5,100,0.01,,SKC,0.01,VWS V14.01,2013-08-25 11:33:00,
2013-08-25 07:34:00,73.9,73.9,30.13,North,359,0.0,14.5,100,0.01,,SKC,0.01,VWS V14.01,2013-08-25 11:34:00,
2013-08-25 07:36:00,73.9,73.9,30.13,North,359,0.0,14.5,100,0.01,,SKC,0.01,VWS V14.01,2013-08-25 11:36:00,
2013-08-25 07:37:00,74.0,74.0,30.13,North,359,0.0,14.5,100,0.01,,SKC,0.01,VWS V14.01,2013-08-25 11:37:00,
2013-08-25 07:38:00,74.0,74.0,30.13,North,359,0.0,14.5,100,0.01,,SKC,0.01,VWS V14.01,2013-08-25 11:38:00,
2013-08-25 07:39:00,73.9,73.9,30.13,North,359,0.0,14.5,100,0.01,,SKC,0.01,VWS V14.01,2013-08-25 11:39:00,
2013-08-25 07:41:00,74.0,74.0,30.14,North,359,0.0,14.5,100,0.01,,SKC,0.01,VWS V14.01,2013-08-25 11:41:00,
2013-08-25 07:42:00,74.0,74.0,30.14,North,359,0.0,14.5,100,0.01,,SKC,0.01,VWS V14.01,2013-08-25 11:42:00,
2013-08-25 07:43:00,73.9,73.9,30.14,South,181,0.0,14.5,100,0.01,,SKC,0.01,VWS V14.01,2013-08-25 11:43:00,
2013-08-25 07:45:00,74.0,74.0,30.14,South,181,0.0,14.5,100,0.01,,SKC,0.01,VWS V14.01,2013-08-25 11:45:00,
2013-08-25 07:46:00,73.9,73.9,30.14,South,181,0.0,14.5,100,0.01,,SKC,0.01,VWS V14.01,2013-08-25 11:46:00,
2013-08-25 07:47:00,73.9,73.9,30.14,South,181,0.0,14.5,100,0.01,,SKC,0.01,VWS V14.01,2013-08-25 11:47:00,
2013-08-25 07:48:00,73.9,73.9,30.14,South,181,0.0,14.5,100,0.01,,SKC,0.01,VWS V14.01,2013-08-25 11:48:00,
2013-08-25 07:50:00,74.0,74.0,30.14,South,181,0.0,14.5,100,0.01,,SKC,0.01,VWS V14.01,2013-08-25 11:50:00,
2013-08-25 07:51:00,73.9,73.9,30.14,South,181,0.0,14.5,100,0.01,,SKC,0.01,VWS V14.01,2013-08-25 11:51:00,
2013-08-25 07:52:00,74.0,74.0,30.14,South,181,0.0,14.5,100,0.01,,SKC,0.01,VWS V14.01,2013-08-25 11:52:00,
2013-08-25 07:53:00,74.0,74.0,30.14,South,181,0.0,14.5,100,0.01,,SKC,0.01,VWS V14.01,2013-08-25 11:53:00,
2013-08-25 07:55:00,74.0,74.0,30.14,South,181,0.0,14.5,100,0.01,,SKC,0.01,VWS V14.01,2013-08-25 11:55:00,
2013-08-25 07:56:00,74.0,74.0,30.14,South,181,0.0,14.5,100,0.01,,SKC,0.01,VWS V14.01,2013-08-25 11:56:00,
2013-08-25 07:57:00,74.0,74.0,30.14,South,181,0.0,14.5,100,0.01,,SKC,0.01,VWS V14.01,2013-08-25 11:57:00,
2013-08-25 07:58:00,74.0,74.0,30.14,North,359,3.2,14.5,100,0.01,,SKC,0.01,VWS V14.01,2013-08-25 11:58:00,
2013-08-25 08:00:00,74.1,74.1,30.14,SSE,163,0.0,14.5,100,0.01,,SKC,0.01,VWS V14.01,2013-08-25 12:00:00,
2013-08-25 08:01:00,74.1,74.1,30.14,North,359,0.0,14.5,100,0.01,,SKC,0.01,VWS V14.01,2013-08-25 12:01:00,
2013-08-25 08:02:00,74.1,74.1,30.14,North,359,0.0,14.5,100,0.01,,SKC,0.01,VWS V14.01,2013-08-25 12:02:00,
2013-08-25 08:04:00,74.2,74.2,30.14,North,359,0.0,14.5,100,0.01,,SKC,0.01,VWS V14.01,2013-08-25 12:04:00,
2013-08-25 08:05:00,74.2,74.2,30.14,South,190,4.7,14.5,100,0.01,,SKC,0.01,VWS V14.01,2013-08-25 12:05:00,
2013-08-25 08:06:00,74.3,74.3,30.15,South,179,0.0,14.5,100,0.01,,SKC,0.01,VWS V14.01,2013-08-25 12:06:00,
2013-08-25 08:07:00,74.3,74.3,30.15,North,359,7.6,14.5,100,0.01,,SKC,0.01,VWS V14.01,2013-08-25 12:07:00,
2013-08-25 08:09:00,74.4,74.4,30.15,South,183,4.7,14.5,100,0.01,,SKC,0.01,VWS V14.01,2013-08-25 12:09:00,
2013-08-25 08:10:00,74.6,74.6,30.15,North,359,0.0,14.5,100,0.01,,SKC,0.01,VWS V14.01,2013-08-25 12:10:00,
2013-08-25 08:11:00,74.6,74.6,30.15,North,359,0.2,14.5,100,0.01,,SKC,0.01,VWS V14.01,2013-08-25 12:11:00,
2013-08-25 08:12:00,74.7,74.7,30.15,North,359,4.3,15.0,100,0.01,,SKC,0.01,VWS V14.01,2013-08-25 12:12:00,
2013-08-25 08:14:00,75.0,75.0,30.15,North,359,0.2,15.0,100,0.01,,SKC,0.01,VWS V14.01,2013-08-25 12:14:00,
2013-08-25 08:15:00,75.2,75.2,30.15,South,181,1.1,15.0,100,0.01,,SKC,0.01,VWS V14.01,2013-08-25 12:15:00,
2013-08-25 08:16:00,75.2,75.2,30.15,North,359,0.0,15.0,100,0.01,,SKC,0.01,VWS V14.01,2013-08-25 12:16:00,
2013-08-25 08:17:00,75.2,75.2,30.15,North,359,1.0,15.0,100,0.01,,SKC,0.01,VWS V14.01,2013-08-25 12:17:00,
2013-08-25 08:18:00,75.2,75.2,30.15,SSE,159,6.5,15.0,100,0.01,,SKC,0.01,VWS V14.01,2013-08-25 12:18:00,
2013-08-25 08:19:00,75.2,75.2,30.15,North,359,8.0,15.0,100,0.01,,SKC,0.01,VWS V14.01,2013-08-25 12:19:00,
2013-08-25 08:20:00,75.0,75.0,30.16,South,172,0.0,15.0,100,0.01,,SKC,0.01,VWS V14.01,2013-08-25 12:20:00,
2013-08-25 08:21:00,75.0,75.0,30.16,South,190,1.3,15.0,100,0.01,,SKC,0.01,VWS V14.01,2013-08-25 12:21:00,
2013-08-25 08:23:00,74.8,74.8,30.15,SSE,162,4.3,15.0,100,0.01,,SKC,0.01,VWS V14.01,2013-08-25 12:23:00,
2013-08-25 08:24:00,74.8,74.8,30.15,South,180,0.0,15.0,100,0.01,,SKC,0.01,VWS V14.01,2013-08-25 12:24:00,
2013-08-25 08:25:00,74.7,74.7,30.16,North,359,0.8,15.0,100,0.01,,SKC,0.01,VWS V14.01,2013-08-25 12:25:00,
2013-08-25 08:26:00,74.6,74.6,30.16,North,359,9.8,15.0,100,0.01,,SKC,0.01,VWS V14.01,2013-08-25 12:26:00,
2013-08-25 08:28:00,74.6,74.6,30.15,North,359,0.0,15.0,100,0.01,,SKC,0.01,VWS V14.01,2013-08-25 12:28:00,
2013-08-25 08:29:00,74.4,74.4,30.15,North,359,7.1,15.0,100,0.01,,SKC,0.01,VWS V14.01,2013-08-25 12:29:00,
2013-08-25 08:31:00,74.4,74.4,30.16,SSW,202,3.7,15.0,100,0.01,,SKC,0.01,VWS V14.01,2013-08-25 12:31:00,
2013-08-25 08:33:00,74.4,74.4,30.16,South,176,0.0,15.0,100,0.01,,SKC,0.01,VWS V14.01,2013-08-25 12:33:00,
2013-08-25 08:34:00,74.3,74.3,30.16,North,359,5.0,15.0,100,0.01,,SKC,0.01,VWS V14.01,2013-08-25 12:34:00,
2013-08-25 08:36:00,74.2,74.2,30.16,North,359,0.5,15.0,100,0.01,,SKC,0.01,VWS V14.01,2013-08-25 12:36:00,
2013-08-25 08:38:00,74.2,74.2,30.16,South,174,7.0,15.0,100,0.01,,SKC,0.01,VWS V14.01,2013-08-25 12:38:00,
2013-08-25 08:39:00,74.2,74.2,30.16,South,173,0.0,15.0,100,0.01,,SKC,0.01,VWS V14.01,2013-08-25 12:39:00,
2013-08-25 08:41:00,74.2,74.2,30.16,SSE,159,0.4,15.0,100,0.01,,SKC,0.01,VWS V14.01,2013-08-25 12:41:00,
2013-08-25 08:43:00,74.1,74.1,30.16,North,359,2.1,15.0,100,0.01,,SKC,0.01,VWS V14.01,2013-08-25 12:43:00,
2013-08-25 08:45:00,74.1,74.1,30.16,North,359,7.1,15.0,100,0.01,,SKC,0.01,VWS V14.01,2013-08-25 12:45:00,
2013-08-25 08:46:00,74.1,74.1,30.16,SSE,153,0.0,15.0,100,0.01,,SKC,0.01,VWS V14.01,2013-08-25 12:46:00,
2013-08-25 08:48:00,74.2,74.2,30.16,North,359,1.0,15.0,100,0.01,,SKC,0.01,VWS V14.01,2013-08-25 12:48:00,
2013-08-25 08:50:00,74.2,74.2,30.16,South,181,0.6,15.0,100,0.01,,SKC,0.01,VWS V14.01,2013-08-25 12:50:00,
2013-08-25 08:51:00,74.1,74.1,30.16,South,180,3.0,15.0,100,0.01,,SKC,0.01,VWS V14.01,2013-08-25 12:51:00,
2013-08-25 08:53:00,74.2,74.2,30.16,SSW,195,0.0,15.0,100,0.01,,SKC,0.01,VWS V14.01,2013-08-25 12:53:00,
2013-08-25 08:55:00,74.2,74.3,30.16,SSW,205,0.0,15.0,100,0.01,,SKC,0.01,VWS V14.01,2013-08-25 12:55:00,
2013-08-25 08:56:00,74.2,74.2,30.16,North,359,0.4,15.0,100,0.01,,SKC,0.01,VWS V14.01,2013-08-25 12:56:00,
2013-08-25 08:57:00,74.2,74.2,30.16,North,359,0.0,15.0,100,0.01,,SKC,0.01,VWS V14.01,2013-08-25 12:57:00,
2013-08-25 08:58:00,74.1,74.1,30.16,South,174,0.6,15.0,100,0.01,,SKC,0.01,VWS V14.01,2013-08-25 12:58:00,
2013-08-25 08:59:00,74.1,74.1,30.16,North,359,0.2,15.0,100,0.01,,SKC,0.01,VWS V14.01,2013-08-25 12:59:00,
2013-08-25 09:00:00,74.2,74.2,30.16,SSE,163,0.4,15.0,100,0.01,,SKC,0.01,VWS V14.01,2013-08-25 13:00:00,
2013-08-25 09:01:00,74.1,74.1,30.16,SSW,194,1.5,15.0,100,0.01,,SKC,0.01,VWS V14.01,2013-08-25 13:01:00,
2013-08-25 09:02:00,74.2,74.2,30.16,SSW,194,0.0,15.0,100,0.01,,SKC,0.01,VWS V14.01,2013-08-25 13:02:00,
2013-08-25 09:03:00,74.1,74.1,30.16,SSW,193,6.2,15.0,100,0.01,,SKC,0.01,VWS V14.01,2013-08-25 13:03:00,
2013-08-25 09:04:00,74.0,74.0,30.15,North,359,3.0,15.0,100,0.01,,SKC,0.01,VWS V14.01,2013-08-25 13:04:00,
2013-08-25 09:06:00,74.0,74.0,30.16,North,359,8.5,15.0,100,0.01,,SKC,0.01,VWS V14.01,2013-08-25 13:06:00,
2013-08-25 09:07:00,74.0,74.0,30.16,South,184,4.2,15.0,100,0.01,,SKC,0.01,VWS V14.01,2013-08-25 13:07:00,
2013-08-25 09:08:00,74.1,74.1,30.16,North,359,0.0,15.0,100,0.01,,SKC,0.01,VWS V14.01,2013-08-25 13:08:00,
2013-08-25 09:09:00,74.1,74.1,30.16,North,359,0.0,15.0,100,0.01,,SKC,0.01,VWS V14.01,2013-08-25 13:09:00,
2013-08-25 09:11:00,74.2,74.2,30.16,South,181,0.2,15.0,100,0.01,,SKC,0.01,VWS V14.01,2013-08-25 13:11:00,
2013-08-25 09:12:00,74.3,74.3,30.16,North,359,0.6,15.0,100,0.01,,SKC,0.01,VWS V14.01,2013-08-25 13:12:00,
2013-08-25 09:13:00,74.3,74.3,30.16,SSW,195,0.0,15.0,100,0.01,,SKC,0.01,VWS V14.01,2013-08-25 13:13:00,
2013-08-25 09:14:00,74.4,74.4,30.16,SSW,195,0.0,15.0,100,0.01,,SKC,0.01,VWS V14.01,2013-08-25 13:14:00,
2013-08-25 09:16:00,74.5,74.5,30.16,South,191,0.4,15.0,100,0.01,,SKC,0.01,VWS V14.01,2013-08-25 13:16:00,
2013-08-25 09:17:00,74.6,74.6,30.16,North,359,6.2,15.0,100,0.01,,SKC,0.01,VWS V14.01,2013-08-25 13:17:00,
2013-08-25 09:18:00,74.6,74.6,30.16,South,181,6.8,15.0,100,0.01,,SKC,0.01,VWS V14.01,2013-08-25 13:18:00,
2013-08-25 09:19:00,74.7,74.7,30.16,SW,226,6.8,15.0,100,0.01,,SKC,0.01,VWS V14.01,2013-08-25 13:19:00,
2013-08-25 09:21:00,74.7,74.7,30.15,SSW,204,8.6,15.0,100,0.01,,SKC,0.01,VWS V14.01,2013-08-25 13:21:00,
2013-08-25 09:22:00,74.7,74.7,30.15,SSW,194,5.7,15.0,100,0.01,,SKC,0.01,VWS V14.01,2013-08-25 13:22:00,
2013-08-25 09:23:00,74.7,74.7,30.15,North,359,0.3,15.0,100,0.01,,SKC,0.01,VWS V14.01,2013-08-25 13:23:00,
2013-08-25 09:24:00,74.7,74.7,30.15,South,187,1.6,15.0,100,0.01,,SKC,0.01,VWS V14.01,2013-08-25 13:24:00,
2013-08-25 09:26:00,74.7,74.7,30.15,North,359,0.4,15.0,100,0.01,,SKC,0.01,VWS V14.01,2013-08-25 13:26:00,
2013-08-25 09:27:00,74.7,74.7,30.15,South,177,3.7,15.0,100,0.01,,SKC,0.01,VWS V14.01,2013-08-25 13:27:00,
2013-08-25 09:28:00,74.7,74.7,30.15,SSE,166,0.0,15.0,100,0.01,,SKC,0.01,VWS V14.01,2013-08-25 13:28:00,
2013-08-25 09:29:00,74.7,74.7,30.15,North,359,0.7,15.0,100,0.01,,SKC,0.01,VWS V14.01,2013-08-25 13:29:00,
2013-08-25 09:32:00,74.7,74.7,30.15,North,359,0.0,15.0,100,0.01,,SKC,0.01,VWS V14.01,2013-08-25 13:32:00,
2013-08-25 09:33:00,74.7,74.7,30.15,North,359,0.0,15.0,100,0.01,,SKC,0.01,VWS V14.01,2013-08-25 13:33:00,
2013-08-25 09:34:00,74.6,74.7,30.16,North,359,0.0,15.0,100,0.01,,SKC,0.01,VWS V14.01,2013-08-25 13:34:00,
2013-08-25 09:37:00,74.6,74.6,30.16,SSE,166,0.0,15.0,100,0.01,,SKC,0.01,VWS V14.01,2013-08-25 13:37:00,
2013-08-25 09:38:00,74.6,74.6,30.16,SSE,165,3.3,15.0,100,0.01,,SKC,0.01,VWS V14.01,2013-08-25 13:38:00,
2013-08-25 09:40:00,74.6,74.6,30.15,South,176,0.0,15.0,100,0.01,,SKC,0.01,VWS V14.01,2013-08-25 13:40:00,
2013-08-25 09:42:00,74.5,74.5,30.15,South,190,7.3,15.0,100,0.01,,SKC,0.01,VWS V14.01,2013-08-25 13:42:00,
2013-08-25 09:43:00,74.4,74.4,30.15,South,177,0.0,15.0,100,0.01,,SKC,0.01,VWS V14.01,2013-08-25 13:43:00,
2013-08-25 09:44:00,74.5,74.5,30.15,North,359,7.4,15.0,100,0.01,,SKC,0.01,VWS V14.01,2013-08-25 13:44:00,
2013-08-25 09:45:00,74.5,74.5,30.16,North,359,0.0,15.0,100,0.01,,SKC,0.01,VWS V14.01,2013-08-25 13:45:00,
2013-08-25 09:47:00,74.6,74.6,30.15,South,170,2.2,15.0,100,0.01,,SKC,0.01,VWS V14.01,2013-08-25 13:47:00,
2013-08-25 09:48:00,74.6,74.6,30.16,South,170,0.0,15.0,100,0.01,,SKC,0.01,VWS V14.01,2013-08-25 13:48:00,
2013-08-25 09:49:00,74.5,74.5,30.15,North,359,0.6,15.0,100,0.01,,SKC,0.01,VWS V14.01,2013-08-25 13:49:00,
2013-08-25 09:50:00,74.6,74.6,30.16,South,191,3.0,15.0,100,0.01,,SKC,0.01,VWS V14.01,2013-08-25 13:50:00,
2013-08-25 09:52:00,74.7,74.7,30.15,North,359,0.0,15.0,100,0.01,,SKC,0.01,VWS V14.01,2013-08-25 13:52:00,
2013-08-25 09:53:00,74.7,74.7,30.15,South,179,8.8,15.0,100,0.01,,SKC,0.01,VWS V14.01,2013-08-25 13:53:00,
2013-08-25 09:54:00,74.7,74.7,30.15,SSE,166,9.9,15.0,100,0.01,,SKC,0.01,VWS V14.01,2013-08-25 13:54:00,
2013-08-25 09:55:00,74.8,74.8,30.15,South,177,0.9,15.0,100,0.01,,SKC,0.01,VWS V14.01,2013-08-25 13:55:00,
2013-08-25 09:57:00,74.9,74.9,30.15,North,359,3.4,15.0,100,0.01,,SKC,0.01,VWS V14.01,2013-08-25 13:57:00,
2013-08-25 09:58:00,75.0,75.0,30.16,SW,217,2.3,15.0,100,0.01,,SKC,0.01,VWS V14.01,2013-08-25 13:58:00,
2013-08-25 09:59:00,75.1,75.1,30.16,North,359,4.5,15.0,100,0.01,,SKC,0.01,VWS V14.01,2013-08-25 13:59:00,
2013-08-25 10:00:00,75.1,75.1,30.16,North,359,0.0,15.0,100,0.01,,SKC,0.01,VWS V14.01,2013-08-25 14:00:00,
2013-08-25 10:02:00,75.3,75.3,30.16,North,359,0.0,15.0,100,0.01,,SKC,0.01,VWS V14.01,2013-08-25 14:02:00,
2013-08-25 10:03:00,75.2,75.3,30.16,SSW,210,4.7,15.0,100,0.01,,SKC,0.01,VWS V14.01,2013-08-25 14:03:00,
2013-08-25 10:04:00,75.4,75.4,30.16,North,359,0.0,15.0,100,0.01,,SKC,0.01,VWS V14.01,2013-08-25 14:04:00,
2013-08-25 10:05:00,75.5,75.5,30.16,North,359,0.0,15.0,100,0.01,,SKC,0.01,VWS V14.01,2013-08-25 14:05:00,
2013-08-25 10:07:00,75.6,75.6,30.16,South,188,6.1,15.0,100,0.01,,SKC,0.01,VWS V14.01,2013-08-25 14:07:00,
2013-08-25 10:08:00,75.7,75.7,30.16,South,188,0.0,15.0,100,0.01,,SKC,0.01,VWS V14.01,2013-08-25 14:08:00,
2013-08-25 10:09:00,75.7,75.8,30.16,North,359,0.0,15.0,100,0.01,,SKC,0.01,VWS V14.01,2013-08-25 14:09:00,
2013-08-25 10:10:00,75.9,75.9,30.16,North,359,0.0,15.0,100,0.01,,SKC,0.01,VWS V14.01,2013-08-25 14:10:00,
2013-08-25 10:12:00,76.0,76.0,30.15,South,191,0.4,15.0,100,0.01,,SKC,0.01,VWS V14.01,2013-08-25 14:12:00,
2013-08-25 10:13:00,76.0,76.0,30.15,North,359,0.0,15.0,100,0.01,,SKC,0.01,VWS V14.01,2013-08-25 14:13:00,
2013-08-25 10:14:00,76.1,76.1,30.15,North,359,0.0,15.0,100,0.01,,SKC,0.01,VWS V14.01,2013-08-25 14:14:00,
2013-08-25 10:15:00,76.2,76.1,30.16,SSW,197,4.6,15.0,100,0.01,,SKC,0.01,VWS V14.01,2013-08-25 14:15:00,
2013-08-25 10:17:00,76.3,76.3,30.16,SSW,210,7.8,15.0,100,0.01,,SKC,0.01,VWS V14.01,2013-08-25 14:17:00,
2013-08-25 10:18:00,76.3,76.3,30.16,South,180,7.3,15.0,100,0.01,,SKC,0.01,VWS V14.01,2013-08-25 14:18:00,
2013-08-25 10:19:00,76.3,76.3,30.16,South,187,3.4,15.0,100,0.01,,SKC,0.01,VWS V14.01,2013-08-25 14:19:00,
2013-08-25 10:20:00,76.3,76.3,30.16,South,176,0.0,15.0,100,0.01,,SKC,0.01,VWS V14.01,2013-08-25 14:20:00,
2013-08-25 10:23:00,76.5,76.5,30.16,North,359,0.4,15.0,100,0.01,,SKC,0.01,VWS V14.01,2013-08-25 14:23:00,
2013-08-25 10:24:00,76.5,76.5,30.16,South,184,9.0,15.0,100,0.01,,SKC,0.01,VWS V14.01,2013-08-25 14:24:00,
2013-08-25 10:25:00,76.6,76.6,30.16,North,359,0.0,15.0,100,0.01,,SKC,0.01,VWS V14.01,2013-08-25 14:25:00,
2013-08-25 10:26:00,76.6,76.6,30.16,North,359,2.7,15.0,100,0.01,,SKC,0.01,VWS V14.01,2013-08-25 14:26:00,
2013-08-25 10:28:00,76.8,76.8,30.16,South,180,3.5,15.0,100,0.01,,SKC,0.01,VWS V14.01,2013-08-25 14:28:00,
2013-08-25 10:29:00,76.7,76.7,30.16,North,359,0.0,15.0,100,0.01,,SKC,0.01,VWS V14.01,2013-08-25 14:29:00,
2013-08-25 10:30:00,76.8,76.8,30.16,South,173,2.9,15.0,100,0.01,,SKC,0.01,VWS V14.01,2013-08-25 14:30:00,
2013-08-25 10:31:00,76.8,76.8,30.16,SSW,193,4.5,15.0,100,0.01,,SKC,0.01,VWS V14.01,2013-08-25 14:31:00,
2013-08-25 10:33:00,76.9,76.9,30.16,North,359,8.6,15.0,100,0.01,,SKC,0.01,VWS V14.01,2013-08-25 14:33:00,
2013-08-25 10:34:00,76.9,76.9,30.16,South,170,0.0,15.0,100,0.01,,SKC,0.01,VWS V14.01,2013-08-25 14:34:00,
2013-08-25 10:35:00,76.9,76.9,30.16,North,359,0.0,15.0,100,0.01,,SKC,0.01,VWS V14.01,2013-08-25 14:35:00,
2013-08-25 10:36:00,76.9,77.0,30.16,North,359,0.6,15.0,100,0.01,,SKC,0.01,VWS V14.01,2013-08-25 14:36:00,
2013-08-25 10:38:00,77.0,77.0,30.16,North,359,0.2,15.0,100,0.01,,SKC,0.01,VWS V14.01,2013-08-25 14:38:00,
2013-08-25 10:39:00,77.0,77.0,30.16,SSW,194,0.0,15.0,100,0.01,,SKC,0.01,VWS V14.01,2013-08-25 14:39:00,
2013-08-25 10:40:00,77.0,77.0,30.16,South,188,2.1,15.0,100,0.01,,SKC,0.01,VWS V14.01,2013-08-25 14:40:00,
2013-08-25 10:41:00,77.0,77.0,30.16,South,179,8.5,15.0,100,0.01,,SKC,0.01,VWS V14.01,2013-08-25 14:41:00,
2013-08-25 10:43:00,76.9,76.9,30.16,North,359,0.0,15.0,100,0.01,,SKC,0.01,VWS V14.01,2013-08-25 14:43:00,
2013-08-25 10:44:00,77.0,77.0,30.16,North,359,0.0,15.0,100,0.01,,SKC,0.01,VWS V14.01,2013-08-25 14:44:00,
2013-08-25 10:45:00,77.0,77.0,30.16,North,359,0.0,15.0,100,0.01,,SKC,0.01,VWS V14.01,2013-08-25 14:45:00,
2013-08-25 10:46:00,77.0,77.0,30.16,North,359,0.0,15.0,100,0.01,,SKC,0.01,VWS V14.01,2013-08-25 14:46:00,
2013-08-25 10:48:00,77.0,77.0,30.16,North,359,2.9,15.0,100,0.01,,SKC,0.01,VWS V14.01,2013-08-25 14:48:00,
2013-08-25 10:49:00,77.0,77.0,30.16,SSE,165,0.0,15.0,100,0.01,,SKC,0.01,VWS V14.01,2013-08-25 14:49:00,
2013-08-25 10:51:00,76.9,76.9,30.16,SSW,205,0.0,15.0,100,0.01,,SKC,0.01,VWS V14.01,2013-08-25 14:51:00,
2013-08-25 10:53:00,76.9,76.9,30.17,North,359,0.0,15.0,100,0.01,,SKC,0.01,VWS V14.01,2013-08-25 14:53:00,
2013-08-25 10:54:00,76.9,76.9,30.17,North,359,0.0,15.0,100,0.01,,SKC,0.01,VWS V14.01,2013-08-25 14:54:00,
2013-08-25 10:56:00,76.7,76.7,30.17,South,180,0.0,15.0,100,0.01,,SKC,0.01,VWS V14.01,2013-08-25 14:56:00,
2013-08-25 10:58:00,76.7,76.7,30.17,South,180,0.0,15.0,100,0.01,,SKC,0.01,VWS V14.01,2013-08-25 14:58:00,
2013-08-25 10:59:00,76.7,76.7,30.17,South,180,0.0,15.0,100,0.01,,SKC,0.01,VWS V14.01,2013-08-25 14:59:00,
2013-08-25 11:00:00,76.6,76.6,30.18,South,180,0.0,15.0,100,0.01,,SKC,0.01,VWS V14.01,2013-08-25 15:00:00,
2013-08-25 11:01:00,76.6,76.6,30.17,South,180,0.0,15.0,100,0.01,,SKC,0.01,VWS V14.01,2013-08-25 15:01:00,
2013-08-25 11:03:00,76.6,76.6,30.18,South,176,5.4,15.0,100,0.01,,SKC,0.01,VWS V14.01,2013-08-25 15:03:00,
2013-08-25 11:05:00,76.5,76.5,30.18,SSW,201,0.0,15.0,100,0.01,,SKC,0.01,VWS V14.01,2013-08-25 15:05:00,
2013-08-25 11:06:00,76.5,76.5,30.18,SSW,201,0.0,15.0,100,0.01,,SKC,0.01,VWS V14.01,2013-08-25 15:06:00,
2013-08-25 11:09:00,76.6,76.6,30.17,North,359,0.0,15.0,100,0.01,,SKC,0.01,VWS V14.01,2013-08-25 15:09:00,
2013-08-25 11:10:00,76.6,76.6,30.18,North,359,0.0,15.0,100,0.01,,SKC,0.01,VWS V14.01,2013-08-25 15:10:00,
2013-08-25 11:11:00,76.6,76.6,30.18,North,359,0.0,15.0,100,0.01,,SKC,0.01,VWS V14.01,2013-08-25 15:11:00,
2013-08-25 11:12:00,76.6,76.6,30.18,North,359,1.4,15.0,100,0.01,,SKC,0.01,VWS V14.01,2013-08-25 15:12:00,
2013-08-25 11:14:00,76.6,76.6,30.18,North,359,0.0,15.0,100,0.01,,SKC,0.01,VWS V14.01,2013-08-25 15:14:00,
2013-08-25 11:15:00,76.6,76.6,30.18,North,359,0.0,15.0,100,0.01,,SKC,0.01,VWS V14.01,2013-08-25 15:15:00,
2013-08-25 11:17:00,76.7,76.7,30.18,North,359,0.0,15.0,100,0.01,,SKC,0.01,VWS V14.01,2013-08-25 15:17:00,
2013-08-25 11:19:00,76.8,76.8,30.18,North,359,0.0,15.0,100,0.01,,SKC,0.01,VWS V14.01,2013-08-25 15:19:00,
2013-08-25 11:20:00,76.8,76.8,30.18,North,359,0.0,15.0,100,0.01,,SKC,0.01,VWS V14.01,2013-08-25 15:20:00,
2013-08-25 11:22:00,76.7,76.7,30.18,South,190,0.2,15.0,100,0.01,,SKC,0.01,VWS V14.01,2013-08-25 15:22:00,
2013-08-25 11:23:00,76.7,76.7,30.18,North,359,4.0,15.0,100,0.01,,SKC,0.01,VWS V14.01,2013-08-25 15:23:00,
2013-08-25 11:24:00,76.8,76.8,30.18,North,359,6.0,15.0,100,0.01,,SKC,0.01,VWS V14.01,2013-08-25 15:24:00,
2013-08-25 11:25:00,76.8,76.8,30.18,North,359,4.9,15.0,100,0.01,,SKC,0.01,VWS V14.01,2013-08-25 15:25:00,
2013-08-25 11:27:00,76.9,76.9,30.18,North,359,0.0,15.0,100,0.01,,SKC,0.01,VWS V14.01,2013-08-25 15:27:00,
2013-08-25 11:28:00,76.8,76.8,30.18,North,359,0.0,15.0,100,0.01,,SKC,0.01,VWS V14.01,2013-08-25 15:28:00,
2013-08-25 11:30:00,76.9,76.9,30.18,North,359,0.0,15.0,100,0.01,,SKC,0.01,VWS V14.01,2013-08-25 15:30:00,
2013-08-25 11:32:00,77.0,77.0,30.19,North,359,0.0,15.0,100,0.01,,SKC,0.01,VWS V14.01,2013-08-25 15:32:00,
2013-08-25 11:33:00,77.1,77.1,30.19,North,359,0.0,15.0,100,0.01,,SKC,0.01,VWS V14.01,2013-08-25 15:33:00,
2013-08-25 11:35:00,77.2,77.2,30.18,North,359,0.0,15.0,100,0.01,,SKC,0.01,VWS V14.01,2013-08-25 15:35:00,
2013-08-25 11:38:00,77.3,77.3,30.19,South,190,0.0,15.0,100,0.01,,SKC,0.01,VWS V14.01,2013-08-25 15:38:00,
2013-08-25 11:40:00,77.4,77.4,30.19,SSW,210,9.4,15.0,100,0.01,,SKC,0.01,VWS V14.01,2013-08-25 15:40:00,
2013-08-25 11:41:00,77.4,77.4,30.19,South,191,0.0,15.0,100,0.01,,SKC,0.01,VWS V14.01,2013-08-25 15:41:00,
2013-08-25 11:43:00,77.7,77.7,30.18,South,186,1.9,15.0,100,0.01,,SKC,0.01,VWS V14.01,2013-08-25 15:43:00,
2013-08-25 11:45:00,77.7,77.7,30.19,South,181,2.4,15.0,100,0.01,,SKC,0.01,VWS V14.01,2013-08-25 15:45:00,
2013-08-25 11:46:00,77.7,77.7,30.19,South,191,6.0,15.0,100,0.01,,SKC,0.01,VWS V14.01,2013-08-25 15:46:00,
2013-08-25 11:48:00,77.7,77.7,30.19,SW,222,0.4,15.0,100,0.01,,SKC,0.01,VWS V14.01,2013-08-25 15:48:00,
2013-08-25 11:50:00,77.7,77.7,30.19,North,359,7.6,15.0,100,0.01,,SKC,0.01,VWS V14.01,2013-08-25 15:50:00,
2013-08-25 11:51:00,77.7,77.8,30.19,SSW,198,3.9,15.0,100,0.01,,SKC,0.01,VWS V14.01,2013-08-25 15:51:00,
2013-08-25 11:53:00,77.7,77.7,30.19,North,359,0.0,15.0,100,0.01,,SKC,0.01,VWS V14.01,2013-08-25 15:53:00,
2013-08-25 11:56:00,77.8,77.9,30.19,North,359,1.2,15.0,100,0.01,,SKC,0.01,VWS V14.01,2013-08-25 15:56:00,
2013-08-25 11:59:00,77.8,77.8,30.19,SSW,195,4.4,15.0,100,0.01,,SKC,0.01,VWS V14.01,2013-08-25 15:59:00,
2013-08-25 12:01:00,78.0,78.0,30.19,North,359,0.0,15.0,100,0.01,,SKC,0.01,VWS V14.01,2013-08-25 16:01:00,
2013-08-25 12:04:00,78.1,78.1,30.19,North,359,0.0,15.0,100,0.01,,SKC,0.01,VWS V14.01,2013-08-25 16:04:00,
2013-08-25 12:06:00,78.1,78.1,30.19,North,359,0.0,15.0,100,0.01,,SKC,0.01,VWS V14.01,2013-08-25 16:06:00,
2013-08-25 12:09:00,78.3,78.3,30.19,North,359,0.0,15.0,100,0.01,,SKC,0.01,VWS V14.01,2013-08-25 16:09:00,
2013-08-25 12:10:00,78.3,78.3,30.20,North,359,1.1,15.0,100,0.01,,SKC,0.01,VWS V14.01,2013-08-25 16:10:00,
2013-08-25 12:11:00,78.4,78.4,30.20,North,359,0.0,15.0,100,0.01,,SKC,0.01,VWS V14.01,2013-08-25 16:11:00,
2013-08-25 12:14:00,78.2,78.2,30.20,North,359,0.0,15.0,100,0.01,,SKC,0.01,VWS V14.01,2013-08-25 16:14:00,
2013-08-25 12:15:00,78.2,78.2,30.20,North,359,0.0,15.0,100,0.01,,SKC,0.01,VWS V14.01,2013-08-25 16:15:00,
2013-08-25 12:16:00,78.3,78.3,30.20,North,359,0.0,15.0,100,0.01,,SKC,0.01,VWS V14.01,2013-08-25 16:16:00,
2013-08-25 12:17:00,78.3,78.3,30.20,North,359,0.0,15.0,100,0.01,,SKC,0.01,VWS V14.01,2013-08-25 16:17:00,
2013-08-25 12:19:00,78.4,78.4,30.20,North,359,0.3,15.0,100,0.01,,SKC,0.01,VWS V14.01,2013-08-25 16:19:00,
2013-08-25 12:20:00,78.3,78.3,30.20,South,183,9.1,15.0,100,0.01,,SKC,0.01,VWS V14.01,2013-08-25 16:20:00,
2013-08-25 12:21:00,78.4,78.4,30.20,South,190,6.9,15.0,100,0.01,,SKC,0.01,VWS V14.01,2013-08-25 16:21:00,
2013-08-25 12:22:00,78.3,78.3,30.20,North,359,9.3,15.0,100,0.01,,SKC,0.01,VWS V14.01,2013-08-25 16:22:00,
2013-08-25 12:25:00,78.4,78.4,30.20,North,359,1.4,15.0,100,0.01,,SKC,0.01,VWS V14.01,2013-08-25 16:25:00,
2013-08-25 12:26:00,78.3,78.3,30.20,North,359,0.0,15.0,100,0.01,,SKC,0.01,VWS V14.01,2013-08-25 16:26:00,
2013-08-25 12:27:00,78.3,78.3,30.20,North,359,0.0,15.0,100,0.01,,SKC,0.01,VWS V14.01,2013-08-25 16:27:00,
2013-08-25 12:30:00,78.4,78.4,30.20,South,174,8.3,15.0,100,0.01,,SKC,0.01,VWS V14.01,2013-08-25 16:30:00,
2013-08-25 12:31:00,78.4,78.4,30.20,South,191,5.5,15.0,100,0.01,,SKC,0.01,VWS V14.01,2013-08-25 16:31:00,
2013-08-25 12:32:00,78.4,78.4,30.20,North,359,7.6,15.0,100,0.01,,SKC,0.01,VWS V14.01,2013-08-25 16:32:00,
2013-08-25 12:35:00,78.7,78.7,30.20,North,359,0.0,15.0,100,0.01,,SKC,0.01,VWS V14.01,2013-08-25 16:35:00,
2013-08-25 12:36:00,78.7,78.7,30.20,North,359,1.3,15.0,100,0.01,,SKC,0.01,VWS V14.01,2013-08-25 16:36:00,
2013-08-25 12:37:00,78.7,78.7,30.20,North,359,2.2,15.0,100,0.01,,SKC,0.01,VWS V14.01,2013-08-25 16:37:00,
2013-08-25 12:40:00,79.0,79.0,30.20,North,359,6.5,15.0,100,0.01,,SKC,0.01,VWS V14.01,2013-08-25 16:40:00,
2013-08-25 12:41:00,79.0,79.0,30.20,South,183,9.3,15.0,100,0.01,,SKC,0.01,VWS V14.01,2013-08-25 16:41:00,
2013-08-25 12:42:00,79.1,79.1,30.20,SSE,149,0.0,15.0,100,0.01,,SKC,0.01,VWS V14.01,2013-08-25 16:42:00,
2013-08-25 12:46:00,79.2,79.2,30.20,SSE,149,0.0,15.0,100,0.01,,SKC,0.01,VWS V14.01,2013-08-25 16:46:00,
2013-08-25 12:47:00,79.3,79.3,30.20,SSE,149,0.0,15.0,100,0.01,,SKC,0.01,VWS V14.01,2013-08-25 16:47:00,
2013-08-25 12:51:00,79.5,79.5,30.20,North,359,0.0,15.0,100,0.01,,SKC,0.01,VWS V14.01,2013-08-25 16:51:00,
2013-08-25 12:52:00,79.7,79.7,30.20,SSW,200,0.0,15.0,100,0.01,,SKC,0.01,VWS V14.01,2013-08-25 16:52:00,
2013-08-25 12:56:00,79.7,79.7,30.20,North,359,0.0,15.0,100,0.01,,SKC,0.01,VWS V14.01,2013-08-25 16:56:00,
2013-08-25 12:57:00,79.7,79.8,30.20,North,359,0.0,15.0,100,0.01,,SKC,0.01,VWS V14.01,2013-08-25 16:57:00,
2013-08-25 12:58:00,79.7,79.7,30.20,South,188,1.0,15.0,100,0.01,,SKC,0.01,VWS V14.01,2013-08-25 16:58:00,
2013-08-25 13:01:00,79.9,79.9,30.19,South,187,12.2,15.0,100,0.01,,SKC,0.01,VWS V14.01,2013-08-25 17:01:00,
2013-08-25 13:02:00,79.8,79.8,30.19,South,174,0.0,15.0,100,0.01,,SKC,0.01,VWS V14.01,2013-08-25 17:02:00,
2013-08-25 13:03:00,79.8,79.8,30.20,South,177,0.2,15.0,100,0.01,,SKC,0.01,VWS V14.01,2013-08-25 17:03:00,
2013-08-25 13:06:00,79.8,79.8,30.19,SSE,159,6.6,15.0,100,0.01,,SKC,0.01,VWS V14.01,2013-08-25 17:06:00,
2013-08-25 13:07:00,79.7,79.7,30.19,South,172,8.5,15.0,100,0.01,,SKC,0.01,VWS V14.01,2013-08-25 17:07:00,
2013-08-25 13:08:00,79.7,79.7,30.19,South,177,6.8,15.0,100,0.01,,SKC,0.01,VWS V14.01,2013-08-25 17:08:00,
2013-08-25 13:11:00,79.5,79.5,30.19,SSW,201,0.4,15.0,100,0.01,,SKC,0.01,VWS V14.01,2013-08-25 17:11:00,
2013-08-25 13:12:00,79.4,79.4,30.19,South,187,5.7,15.0,100,0.01,,SKC,0.01,VWS V14.01,2013-08-25 17:12:00,
2013-08-25 13:13:00,79.4,79.4,30.19,North,359,2.7,15.0,100,0.01,,SKC,0.01,VWS V14.01,2013-08-25 17:13:00,
2013-08-25 13:16:00,79.4,79.4,30.18,South,169,0.0,15.0,100,0.01,,SKC,0.01,VWS V14.01,2013-08-25 17:16:00,
2013-08-25 13:17:00,79.7,79.7,30.18,South,169,0.0,15.0,100,0.01,,SKC,0.01,VWS V14.01,2013-08-25 17:17:00,
2013-08-25 13:18:00,79.7,79.7,30.18,South,169,0.0,15.0,100,0.01,,SKC,0.01,VWS V14.01,2013-08-25 17:18:00,
2013-08-25 13:21:00,79.8,79.8,30.18,North,359,0.8,15.0,100,0.01,,SKC,0.01,VWS V14.01,2013-08-25 17:21:00,
2013-08-25 13:22:00,79.9,79.9,30.18,North,359,0.4,15.0,100,0.01,,SKC,0.01,VWS V14.01,2013-08-25 17:22:00,
2013-08-25 13:23:00,80.0,80.0,30.18,North,359,0.0,15.0,100,0.01,,SKC,0.01,VWS V14.01,2013-08-25 17:23:00,
2013-08-25 13:27:00,80.0,80.0,30.18,North,359,0.0,15.0,100,0.01,,SKC,0.01,VWS V14.01,2013-08-25 17:27:00,
2013-08-25 13:28:00,80.1,80.1,30.17,North,359,7.6,15.0,100,0.01,,SKC,0.01,VWS V14.01,2013-08-25 17:28:00,
2013-08-25 13:29:00,80.2,80.2,30.18,South,179,2.8,15.0,100,0.01,,SKC,0.01,VWS V14.01,2013-08-25 17:29:00,
2013-08-25 13:32:00,80.2,80.2,30.17,North,359,0.0,15.0,100,0.01,,SKC,0.01,VWS V14.01,2013-08-25 17:32:00,
2013-08-25 13:33:00,80.3,80.3,30.17,North,359,2.4,15.0,100,0.01,,SKC,0.01,VWS V14.01,2013-08-25 17:33:00,
2013-08-25 13:34:00,80.2,80.3,30.17,SSW,205,2.9,15.0,100,0.01,,SKC,0.01,VWS V14.01,2013-08-25 17:34:00,
2013-08-25 13:37:00,80.3,80.3,30.17,South,187,4.9,15.0,100,0.01,,SKC,0.01,VWS V14.01,2013-08-25 17:37:00,
2013-08-25 13:38:00,80.5,80.5,30.17,North,359,0.3,15.0,100,0.01,,SKC,0.01,VWS V14.01,2013-08-25 17:38:00,
2013-08-25 13:39:00,80.5,80.5,30.17,North,359,1.7,15.0,100,0.01,,SKC,0.01,VWS V14.01,2013-08-25 17:39:00,
2013-08-25 13:42:00,80.4,80.2,30.17,North,359,0.0,15.0,100,0.01,,SKC,0.01,VWS V14.01,2013-08-25 17:42:00,
2013-08-25 13:43:00,80.3,80.1,30.17,North,359,0.0,15.0,99,0.01,,SKC,0.01,VWS V14.01,2013-08-25 17:43:00,
2013-08-25 13:44:00,80.3,80.2,30.18,North,359,0.0,15.0,100,0.01,,SKC,0.01,VWS V14.01,2013-08-25 17:44:00,
2013-08-25 13:47:00,80.5,80.3,30.18,North,359,0.0,15.0,100,0.01,,SKC,0.01,VWS V14.01,2013-08-25 17:47:00,
2013-08-25 13:48:00,80.5,80.3,30.18,North,359,0.0,15.0,99,0.01,,SKC,0.01,VWS V14.01,2013-08-25 17:48:00,
2013-08-25 13:49:00,80.4,80.1,30.18,North,359,0.0,15.0,99,0.01,,SKC,0.01,VWS V14.01,2013-08-25 17:49:00,
2013-08-25 13:52:00,80.4,80.1,30.18,North,359,0.0,15.0,99,0.01,,SKC,0.01,VWS V14.01,2013-08-25 17:52:00,
2013-08-25 13:53:00,80.4,79.9,30.18,SSW,211,8.8,15.0,98,0.01,,SKC,0.01,VWS V14.01,2013-08-25 17:53:00,
2013-08-25 13:54:00,80.4,79.8,30.18,SW,218,7.9,15.0,98,0.01,,SKC,0.01,VWS V14.01,2013-08-25 17:54:00,
2013-08-25 13:57:00,80.4,79.9,30.18,South,173,6.5,15.0,98,0.01,,SKC,0.01,VWS V14.01,2013-08-25 17:57:00,
2013-08-25 13:58:00,80.4,79.9,30.18,North,359,9.6,15.0,98,0.01,,SKC,0.01,VWS V14.01,2013-08-25 17:58:00,
2013-08-25 13:59:00,80.3,79.8,30.19,South,187,3.3,15.0,98,0.01,,SKC,0.01,VWS V14.01,2013-08-25 17:59:00,
2013-08-25 14:02:00,80.3,79.9,30.18,South,191,3.7,15.0,99,0.01,,SKC,0.01,VWS V14.01,2013-08-25 18:02:00,
2013-08-25 14:03:00,80.4,80.1,30.18,South,179,8.0,15.0,99,0.01,,SKC,0.01,VWS V14.01,2013-08-25 18:03:00,
2013-08-25 14:04:00,80.3,79.9,30.18,North,359,8.6,15.0,99,0.01,,SKC,0.01,VWS V14.01,2013-08-25 18:04:00,
2013-08-25 14:07:00,80.5,80.2,30.18,North,359,0.0,15.0,99,0.01,,SKC,0.01,VWS V14.01,2013-08-25 18:07:00,
2013-08-25 14:08:00,80.5,80.2,30.19,North,359,0.0,15.0,99,0.01,,SKC,0.01,VWS V14.01,2013-08-25 18:08:00,
2013-08-25 14:09:00,80.5,80.2,30.18,North,359,0.0,15.0,99,0.01,,SKC,0.01,VWS V14.01,2013-08-25 18:09:00,
2013-08-25 14:10:00,80.5,80.2,30.19,North,359,0.0,15.0,99,0.01,,SKC,0.01,VWS V14.01,2013-08-25 18:10:00,
2013-08-25 14:12:00,80.7,80.3,30.19,North,359,0.4,15.0,99,0.01,,SKC,0.01,VWS V14.01,2013-08-25 18:12:00,
2013-08-25 14:13:00,80.6,80.1,30.18,North,359,0.0,15.0,98,0.01,,SKC,0.01,VWS V14.01,2013-08-25 18:13:00,
2013-08-25 14:14:00,80.7,80.3,30.18,North,359,6.2,15.0,99,0.01,,SKC,0.01,VWS V14.01,2013-08-25 18:14:00,
2013-08-25 14:15:00,80.8,80.4,30.18,South,190,0.6,15.0,99,0.01,,SKC,0.01,VWS V14.01,2013-08-25 18:15:00,
2013-08-25 14:18:00,81.2,80.8,30.18,SSW,195,7.0,15.0,99,0.01,,SKC,0.01,VWS V14.01,2013-08-25 18:18:00,
2013-08-25 14:19:00,80.9,80.2,30.18,North,359,4.1,15.0,98,0.01,,SKC,0.01,VWS V14.01,2013-08-25 18:19:00,
2013-08-25 14:20:00,81.0,80.4,30.18,South,180,0.0,15.0,98,0.01,,SKC,0.01,VWS V14.01,2013-08-25 18:20:00,
2013-08-25 14:23:00,80.8,80.2,30.18,North,359,0.0,15.0,98,0.01,,SKC,0.01,VWS V14.01,2013-08-25 18:23:00,
2013-08-25 14:24:00,80.8,80.2,30.18,North,359,0.0,15.0,98,0.01,,SKC,0.01,VWS V14.01,2013-08-25 18:24:00,
2013-08-25 14:25:00,80.7,80.2,30.18,SSW,197,0.4,15.0,98,0.01,,SKC,0.01,VWS V14.01,2013-08-25 18:25:00,
2013-08-25 14:28:00,80.8,80.4,30.18,North,359,6.8,15.0,99,0.01,,SKC,0.01,VWS V14.01,2013-08-25 18:28:00,
2013-08-25 14:29:00,80.8,80.4,30.18,South,187,6.5,15.0,99,0.01,,SKC,0.01,VWS V14.01,2013-08-25 18:29:00,
2013-08-25 14:30:00,80.8,80.5,30.18,South,180,1.1,15.0,99,0.01,,SKC,0.01,VWS V14.01,2013-08-25 18:30:00,
2013-08-25 14:33:00,80.7,80.2,30.18,North,359,0.0,15.0,98,0.01,,SKC,0.01,VWS V14.01,2013-08-25 18:33:00,
2013-08-25 14:34:00,80.7,80.2,30.18,North,359,0.0,15.0,98,0.01,,SKC,0.01,VWS V14.01,2013-08-25 18:34:00,
2013-08-25 14:36:00,80.7,80.4,30.18,North,359,0.0,15.0,99,0.01,,SKC,0.01,VWS V14.01,2013-08-25 18:36:00,
2013-08-25 14:38:00,80.7,80.3,30.18,North,359,0.0,15.0,99,0.01,,SKC,0.01,VWS V14.01,2013-08-25 18:38:00,
2013-08-25 14:39:00,80.8,80.4,30.18,North,359,0.0,15.0,99,0.01,,SKC,0.01,VWS V14.01,2013-08-25 18:39:00,
2013-08-25 14:41:00,80.8,80.4,30.18,North,359,0.0,15.0,99,0.01,,SKC,0.01,VWS V14.01,2013-08-25 18:41:00,
2013-08-25 14:43:00,80.6,79.9,30.18,North,359,0.6,15.0,98,0.01,,SKC,0.01,VWS V14.01,2013-08-25 18:43:00,
2013-08-25 14:44:00,80.5,80.0,30.18,North,359,0.7,15.0,98,0.01,,SKC,0.01,VWS V14.01,2013-08-25 18:44:00,
2013-08-25 14:46:00,80.5,80.2,30.18,North,359,2.2,15.0,99,0.01,,SKC,0.01,VWS V14.01,2013-08-25 18:46:00,
2013-08-25 14:48:00,80.6,80.4,30.18,North,359,0.0,15.0,99,0.01,,SKC,0.01,VWS V14.01,2013-08-25 18:48:00,
2013-08-25 14:49:00,80.6,80.4,30.18,North,359,0.0,15.0,99,0.01,,SKC,0.01,VWS V14.01,2013-08-25 18:49:00,
2013-08-25 14:51:00,80.8,80.6,30.18,North,359,0.0,15.0,99,0.01,,SKC,0.01,VWS V14.01,2013-08-25 18:51:00,
2013-08-25 14:53:00,81.0,80.8,30.18,North,359,0.0,15.0,99,0.01,,SKC,0.01,VWS V14.01,2013-08-25 18:53:00,
2013-08-25 14:54:00,81.1,80.9,30.18,North,359,0.0,15.0,99,0.01,,SKC,0.01,VWS V14.01,2013-08-25 18:54:00,
2013-08-25 14:55:00,81.2,81.0,30.18,North,359,0.0,15.0,99,0.01,,SKC,0.01,VWS V14.01,2013-08-25 18:55:00,
2013-08-25 14:56:00,81.2,80.9,30.18,North,359,0.0,15.0,99,0.01,,SKC,0.01,VWS V14.01,2013-08-25 18:56:00,
2013-08-25 14:58:00,81.2,80.7,30.18,North,359,0.0,15.0,98,0.01,,SKC,0.01,VWS V14.01,2013-08-25 18:58:00,
2013-08-25 14:59:00,81.3,80.9,30.18,North,359,0.0,15.0,99,0.01,,SKC,0.01,VWS V14.01,2013-08-25 18:59:00,
2013-08-25 15:00:00,81.2,80.7,30.18,North,359,0.0,15.0,98,0.01,,SKC,0.01,VWS V14.01,2013-08-25 19:00:00,
2013-08-25 15:01:00,81.3,80.8,30.18,North,359,0.0,15.0,98,0.01,,SKC,0.01,VWS V14.01,2013-08-25 19:01:00,
2013-08-25 15:04:00,81.5,81.0,30.18,North,359,0.0,15.0,98,0.01,,SKC,0.01,VWS V14.01,2013-08-25 19:04:00,
2013-08-25 15:05:00,81.4,80.7,30.18,North,359,0.0,15.0,98,0.01,,SKC,0.01,VWS V14.01,2013-08-25 19:05:00,
2013-08-25 15:06:00,81.3,80.8,30.18,North,359,0.0,15.0,98,0.01,,SKC,0.01,VWS V14.01,2013-08-25 19:06:00,
2013-08-25 15:09:00,81.5,81.2,30.18,North,359,0.0,15.0,99,0.01,,SKC,0.01,VWS V14.01,2013-08-25 19:09:00,
2013-08-25 15:10:00,81.4,81.1,30.18,North,359,0.0,15.0,99,0.01,,SKC,0.01,VWS V14.01,2013-08-25 19:10:00,
2013-08-25 15:11:00,81.5,81.2,30.17,North,359,0.0,15.0,99,0.01,,SKC,0.01,VWS V14.01,2013-08-25 19:11:00,
2013-08-25 15:14:00,81.8,81.2,30.17,North,359,0.0,15.0,98,0.01,,SKC,0.01,VWS V14.01,2013-08-25 19:14:00,
2013-08-25 15:15:00,81.8,81.2,30.17,North,359,0.0,15.0,98,0.01,,SKC,0.01,VWS V14.01,2013-08-25 19:15:00,
2013-08-25 15:17:00,81.6,80.9,30.17,North,359,0.2,15.0,98,0.01,,SKC,0.01,VWS V14.01,2013-08-25 19:17:00,
2013-08-25 15:19:00,81.5,81.1,30.17,North,359,0.0,15.0,99,0.01,,SKC,0.01,VWS V14.01,2013-08-25 19:19:00,
2013-08-25 15:20:00,81.5,81.1,30.17,North,359,0.0,15.0,99,0.01,,SKC,0.01,VWS V14.01,2013-08-25 19:20:00,
2013-08-25 15:22:00,81.8,81.5,30.17,North,359,0.0,15.0,99,0.01,,SKC,0.01,VWS V14.01,2013-08-25 19:22:00,
2013-08-25 15:24:00,82.1,81.7,30.17,North,359,0.0,15.0,99,0.01,,SKC,0.01,VWS V14.01,2013-08-25 19:24:00,
2013-08-25 15:25:00,82.1,81.7,30.17,North,359,0.0,15.0,99,0.01,,SKC,0.01,VWS V14.01,2013-08-25 19:25:00,
2013-08-25 15:27:00,82.3,81.8,30.17,North,359,0.0,15.0,98,0.01,,SKC,0.01,VWS V14.01,2013-08-25 19:27:00,
2013-08-25 15:30:00,82.2,81.6,30.16,South,173,4.7,15.0,98,0.01,,SKC,0.01,VWS V14.01,2013-08-25 19:30:00,
2013-08-25 15:31:00,82.2,81.6,30.16,South,186,2.1,15.0,98,0.01,,SKC,0.01,VWS V14.01,2013-08-25 19:31:00,
2013-08-25 15:32:00,82.2,81.7,30.16,SSW,195,0.0,15.0,98,0.01,,SKC,0.01,VWS V14.01,2013-08-25 19:32:00,
2013-08-25 15:35:00,82.2,81.6,30.16,South,186,0.0,15.0,98,0.01,,SKC,0.01,VWS V14.01,2013-08-25 19:35:00,
2013-08-25 15:36:00,82.2,81.5,30.16,South,186,0.0,15.0,98,0.01,,SKC,0.01,VWS V14.01,2013-08-25 19:36:00,
2013-08-25 15:37:00,82.0,81.3,30.16,South,186,0.0,15.0,98,0.01,,SKC,0.01,VWS V14.01,2013-08-25 19:37:00,
2013-08-25 15:40:00,81.8,81.1,30.16,South,186,0.0,15.0,98,0.01,,SKC,0.01,VWS V14.01,2013-08-25 19:40:00,
2013-08-25 15:41:00,81.9,81.2,30.16,South,186,0.0,15.0,98,0.01,,SKC,0.01,VWS V14.01,2013-08-25 19:41:00,
2013-08-25 15:42:00,82.1,81.5,30.16,South,186,0.0,15.0,98,0.01,,SKC,0.01,VWS V14.01,2013-08-25 19:42:00,
2013-08-25 15:45:00,82.1,81.4,30.16,SSW,201,1.9,15.0,98,0.01,,SKC,0.01,VWS V14.01,2013-08-25 19:45:00,
2013-08-25 15:46:00,82.1,81.4,30.16,SW,215,3.0,15.0,98,0.01,,SKC,0.01,VWS V14.01,2013-08-25 19:46:00,
2013-08-25 15:47:00,82.1,81.4,30.16,SSW,195,5.7,15.0,98,0.01,,SKC,0.01,VWS V14.01,2013-08-25 19:47:00,
2013-08-25 15:50:00,81.8,81.3,30.16,North,359,0.0,15.0,98,0.01,,SKC,0.01,VWS V14.01,2013-08-25 19:50:00,
2013-08-25 15:51:00,81.7,81.2,30.16,North,359,0.0,15.0,98,0.01,,SKC,0.01,VWS V14.01,2013-08-25 19:51:00,
2013-08-25 15:52:00,81.8,81.2,30.16,North,359,0.0,15.0,98,0.01,,SKC,0.01,VWS V14.01,2013-08-25 19:52:00,
2013-08-25 15:55:00,81.7,81.2,30.16,South,169,5.7,15.0,98,0.01,,SKC,0.01,VWS V14.01,2013-08-25 19:55:00,
2013-08-25 15:56:00,81.7,81.2,30.16,South,188,8.1,15.0,98,0.01,,SKC,0.01,VWS V14.01,2013-08-25 19:56:00,
2013-08-25 15:57:00,81.7,81.2,30.16,South,176,0.0,15.0,98,0.01,,SKC,0.01,VWS V14.01,2013-08-25 19:57:00,
2013-08-25 15:58:00,81.7,81.2,30.16,South,176,0.0,15.0,98,0.01,,SKC,0.01,VWS V14.01,2013-08-25 19:58:00,
2013-08-25 16:00:00,81.7,81.3,30.16,South,176,0.0,15.0,99,0.01,,SKC,0.01,VWS V14.01,2013-08-25 20:00:00,
2013-08-25 16:01:00,81.7,81.3,30.16,North,359,0.6,15.0,99,0.01,,SKC,0.01,VWS V14.01,2013-08-25 20:01:00,
2013-08-25 16:02:00,81.7,81.3,30.16,South,188,0.6,15.0,99,0.01,,SKC,0.01,VWS V14.01,2013-08-25 20:02:00,
2013-08-25 16:03:00,81.6,81.2,30.16,North,359,2.7,15.0,99,0.01,,SKC,0.01,VWS V14.01,2013-08-25 20:03:00,
2013-08-25 16:06:00,81.6,81.3,30.16,North,359,3.2,15.0,99,0.01,,SKC,0.01,VWS V14.01,2013-08-25 20:06:00,
2013-08-25 16:07:00,81.7,81.5,30.16,North,359,0.6,15.0,99,0.01,,SKC,0.01,VWS V14.01,2013-08-25 20:07:00,
2013-08-25 16:08:00,81.6,81.3,30.16,South,176,8.2,15.0,99,0.01,,SKC,0.01,VWS V14.01,2013-08-25 20:08:00,
2013-08-25 16:11:00,81.5,81.3,30.16,South,173,1.3,15.0,99,0.01,,SKC,0.01,VWS V14.01,2013-08-25 20:11:00,
2013-08-25 16:12:00,81.5,81.4,30.16,SSW,195,6.5,15.0,100,0.01,,SKC,0.01,VWS V14.01,2013-08-25 20:12:00,
2013-08-25 16:13:00,81.5,81.3,30.16,SSW,210,8.6,15.0,100,0.01,,SKC,0.01,VWS V14.01,2013-08-25 20:13:00,
2013-08-25 16:16:00,81.5,81.3,30.16,South,183,0.0,15.0,100,0.01,,SKC,0.01,VWS V14.01,2013-08-25 20:16:00,
2013-08-25 16:17:00,81.6,81.4,30.16,South,183,0.0,15.0,100,0.01,,SKC,0.01,VWS V14.01,2013-08-25 20:17:00,
2013-08-25 16:18:00,81.6,81.4,30.16,South,183,0.0,15.0,99,0.01,,SKC,0.01,VWS V14.01,2013-08-25 20:18:00,
2013-08-25 16:22:00,81.8,81.3,30.16,North,359,0.6,15.0,98,0.01,,SKC,0.01,VWS V14.01,2013-08-25 20:22:00,
2013-08-25 16:23:00,81.9,81.5,30.16,North,359,0.0,15.0,98,0.01,,SKC,0.01,VWS V14.01,2013-08-25 20:23:00,
2013-08-25 16:27:00,81.7,81.5,30.16,SSW,205,0.2,15.0,99,0.01,,SKC,0.01,VWS V14.01,2013-08-25 20:27:00,
2013-08-25 16:29:00,81.6,81.6,30.16,North,359,0.0,15.0,100,0.01,,SKC,0.01,VWS V14.01,2013-08-25 20:29:00,
2013-08-25 16:32:00,81.5,81.5,30.16,North,359,0.0,15.0,100,0.01,,SKC,0.01,VWS V14.01,2013-08-25 20:32:00,
2013-08-25 16:34:00,81.4,81.3,30.16,North,359,0.0,15.0,100,0.01,,SKC,0.01,VWS V14.01,2013-08-25 20:34:00,
2013-08-25 16:37:00,81.5,81.4,30.15,SSW,205,2.4,15.0,100,0.01,,SKC,0.01,VWS V14.01,2013-08-25 20:37:00,
2013-08-25 16:38:00,81.5,81.4,30.16,South,180,9.0,15.0,100,0.01,,SKC,0.01,VWS V14.01,2013-08-25 20:38:00,
2013-08-25 16:39:00,81.5,81.4,30.16,South,187,6.8,15.0,100,0.01,,SKC,0.01,VWS V14.01,2013-08-25 20:39:00,
2013-08-25 16:42:00,81.3,81.2,30.16,North,359,8.3,15.0,100,0.01,,SKC,0.01,VWS V14.01,2013-08-25 20:42:00,
2013-08-25 16:43:00,81.4,81.3,30.16,North,359,8.3,15.0,100,0.01,,SKC,0.01,VWS V14.01,2013-08-25 20:43:00,
2013-08-25 16:44:00,81.5,81.3,30.16,South,169,8.6,15.0,99,0.01,,SKC,0.01,VWS V14.01,2013-08-25 20:44:00,
2013-08-25 16:47:00,81.5,81.5,30.15,North,359,1.7,15.0,100,0.01,,SKC,0.01,VWS V14.01,2013-08-25 20:47:00,
2013-08-25 16:48:00,81.5,81.5,30.15,North,359,0.4,15.0,100,0.01,,SKC,0.01,VWS V14.01,2013-08-25 20:48:00,
2013-08-25 16:50:00,81.4,81.3,30.15,North,359,0.0,15.0,100,0.01,,SKC,0.01,VWS V14.01,2013-08-25 20:50:00,
2013-08-25 16:53:00,81.5,81.5,30.16,North,359,0.0,15.0,100,0.01,,SKC,0.01,VWS V14.01,2013-08-25 20:53:00,
2013-08-25 16:55:00,81.7,81.7,30.15,North,359,2.1,15.0,100,0.01,,SKC,0.01,VWS V14.01,2013-08-25 20:55:00,
2013-08-25 16:58:00,81.6,81.5,30.16,North,359,0.0,15.0,100,0.01,,SKC,0.01,VWS V14.01,2013-08-25 20:58:00,
2013-08-25 16:59:00,81.7,81.7,30.16,North,359,0.0,15.0,100,0.01,,SKC,0.01,VWS V14.01,2013-08-25 20:59:00,
2013-08-25 17:00:00,81.6,81.5,30.15,North,359,0.0,15.0,100,0.01,,SKC,0.01,VWS V14.01,2013-08-25 21:00:00,
2013-08-25 17:03:00,81.4,81.3,30.15,North,359,0.0,15.0,100,0.01,,SKC,0.01,VWS V14.01,2013-08-25 21:03:00,
2013-08-25 17:04:00,81.3,81.3,30.15,North,359,2.5,15.0,100,0.01,,SKC,0.01,VWS V14.01,2013-08-25 21:04:00,
2013-08-25 17:05:00,81.4,81.4,30.15,North,359,7.5,15.0,100,0.01,,SKC,0.01,VWS V14.01,2013-08-25 21:05:00,
2013-08-25 17:08:00,81.5,81.2,30.15,SSW,211,0.0,15.0,100,0.01,,SKC,0.01,VWS V14.01,2013-08-25 21:08:00,
2013-08-25 17:09:00,81.4,81.2,30.15,North,359,9.6,15.0,100,0.01,,SKC,0.01,VWS V14.01,2013-08-25 21:09:00,
2013-08-25 17:10:00,81.4,81.2,30.15,North,359,1.9,15.0,100,0.01,,SKC,0.01,VWS V14.01,2013-08-25 21:10:00,
2013-08-25 17:13:00,81.3,81.2,30.15,North,359,2.2,15.0,100,0.01,,SKC,0.01,VWS V14.01,2013-08-25 21:13:00,
2013-08-25 17:14:00,81.3,81.4,30.15,North,359,9.3,15.0,100,0.01,,SKC,0.01,VWS V14.01,2013-08-25 21:14:00,
2013-08-25 17:15:00,81.4,81.2,30.15,North,359,1.9,15.0,100,0.01,,SKC,0.01,VWS V14.01,2013-08-25 21:15:00,
2013-08-25 17:18:00,81.4,81.2,30.15,North,359,0.0,15.0,99,0.01,,SKC,0.01,VWS V14.01,2013-08-25 21:18:00,
2013-08-25 17:19:00,81.4,81.1,30.15,North,359,0.0,15.0,99,0.01,,SKC,0.01,VWS V14.01,2013-08-25 21:19:00,
2013-08-25 17:20:00,81.3,81.0,30.15,North,359,0.0,15.0,99,0.01,,SKC,0.01,VWS V14.01,2013-08-25 21:20:00,
2013-08-25 17:24:00,81.4,81.0,30.15,North,359,14.1,15.0,99,0.01,,SKC,0.01,VWS V14.01,2013-08-25 21:24:00,
2013-08-25 17:25:00,81.4,81.0,30.15,North,359,7.1,16.0,99,0.01,,SKC,0.01,VWS V14.01,2013-08-25 21:25:00,
2013-08-25 17:29:00,81.5,81.2,30.15,South,181,1.1,16.0,99,0.01,,SKC,0.01,VWS V14.01,2013-08-25 21:29:00,
2013-08-25 17:30:00,81.3,81.0,30.15,South,181,0.0,16.0,99,0.01,,SKC,0.01,VWS V14.01,2013-08-25 21:30:00,
2013-08-25 17:34:00,81.5,81.0,30.15,North,359,5.4,16.0,98,0.01,,SKC,0.01,VWS V14.01,2013-08-25 21:34:00,
2013-08-25 17:35:00,81.4,81.0,30.15,North,359,2.3,16.0,99,0.01,,SKC,0.01,VWS V14.01,2013-08-25 21:35:00,
2013-08-25 17:36:00,81.3,80.9,30.15,SSE,158,10.1,16.0,99,0.01,,SKC,0.01,VWS V14.01,2013-08-25 21:36:00,
2013-08-25 17:39:00,81.3,80.9,30.15,North,359,7.6,16.2,99,0.01,,SKC,0.01,VWS V14.01,2013-08-25 21:39:00,
2013-08-25 17:40:00,81.4,81.0,30.15,South,191,2.4,16.2,99,0.01,,SKC,0.01,VWS V14.01,2013-08-25 21:40:00,
2013-08-25 17:41:00,81.4,81.0,30.15,South,184,1.1,16.2,99,0.01,,SKC,0.01,VWS V14.01,2013-08-25 21:41:00,
2013-08-25 17:44:00,81.7,81.4,30.15,North,359,1.1,16.2,99,0.01,,SKC,0.01,VWS V14.01,2013-08-25 21:44:00,
2013-08-25 17:45:00,81.8,81.5,30.15,North,359,0.0,16.2,99,0.01,,SKC,0.01,VWS V14.01,2013-08-25 21:45:00,
2013-08-25 17:46:00,81.8,81.4,30.15,North,359,0.0,16.2,99,0.01,,SKC,0.01,VWS V14.01,2013-08-25 21:46:00,
2013-08-25 17:49:00,81.9,81.5,30.15,North,359,0.0,16.2,98,0.01,,SKC,0.01,VWS V14.01,2013-08-25 21:49:00,
2013-08-25 17:50:00,82.0,81.3,30.15,North,359,0.0,16.2,98,0.01,,SKC,0.01,VWS V14.01,2013-08-25 21:50:00,
2013-08-25 17:51:00,81.9,81.3,30.15,South,188,6.8,16.2,98,0.01,,SKC,0.01,VWS V14.01,2013-08-25 21:51:00,
2013-08-25 17:55:00,81.6,81.1,30.15,North,359,0.0,16.2,98,0.01,,SKC,0.01,VWS V14.01,2013-08-25 21:55:00,
2013-08-25 17:56:00,81.5,81.1,30.15,North,359,3.3,16.2,99,0.01,,SKC,0.01,VWS V14.01,2013-08-25 21:56:00,
2013-08-25 18:00:00,81.1,80.7,30.15,North,359,0.7,16.2,99,0.01,,SKC,0.01,VWS V14.01,2013-08-25 22:00:00,
2013-08-25 18:01:00,80.9,80.5,30.15,North,359,8.8,16.2,99,0.01,,SKC,0.01,VWS V14.01,2013-08-25 22:01:00,
2013-08-25 18:05:00,80.7,80.2,30.15,North,359,4.8,16.2,98,0.01,,SKC,0.01,VWS V14.01,2013-08-25 22:05:00,
2013-08-25 18:06:00,80.5,79.8,30.15,North,359,2.4,16.2,98,0.01,,SKC,0.01,VWS V14.01,2013-08-25 22:06:00,
2013-08-25 18:07:00,80.6,80.0,30.16,North,359,0.7,16.2,98,0.01,,SKC,0.01,VWS V14.01,2013-08-25 22:07:00,
2013-08-25 18:10:00,80.5,79.9,30.16,South,176,10.5,16.2,98,0.01,,SKC,0.01,VWS V14.01,2013-08-25 22:10:00,
2013-08-25 18:11:00,80.5,79.9,30.16,North,359,2.1,16.2,98,0.01,,SKC,0.01,VWS V14.01,2013-08-25 22:11:00,
2013-08-25 18:12:00,80.5,79.6,30.16,North,359,0.0,16.2,97,0.01,,SKC,0.01,VWS V14.01,2013-08-25 22:12:00,
2013-08-25 18:15:00,80.4,79.5,30.16,North,359,12.9,17.2,97,0.01,,SKC,0.01,VWS V14.01,2013-08-25 22:15:00,
2013-08-25 18:16:00,80.5,79.7,30.16,North,359,11.8,17.2,97,0.01,,SKC,0.01,VWS V14.01,2013-08-25 22:16:00,
2013-08-25 18:17:00,80.4,79.5,30.16,SSW,193,0.9,17.2,97,0.01,,SKC,0.01,VWS V14.01,2013-08-25 22:17:00,
2013-08-25 18:20:00,80.4,79.5,30.16,South,183,1.6,17.2,97,0.01,,SKC,0.01,VWS V14.01,2013-08-25 22:20:00,
2013-08-25 18:22:00,80.6,79.8,30.16,North,359,4.5,17.2,97,0.01,,SKC,0.01,VWS V14.01,2013-08-25 22:22:00,
2013-08-25 18:26:00,80.7,79.8,30.16,North,359,1.4,17.2,97,0.01,,SKC,0.01,VWS V14.01,2013-08-25 22:26:00,
2013-08-25 18:27:00,80.6,79.7,30.16,South,184,5.0,17.2,97,0.01,,SKC,0.01,VWS V14.01,2013-08-25 22:27:00,
2013-08-25 18:31:00,80.3,80.2,30.17,SSW,194,0.0,17.2,100,0.01,,SKC,0.01,VWS V14.01,2013-08-25 22:31:00,
2013-08-25 18:32:00,80.2,80.0,30.16,SSW,194,0.0,17.2,99,0.01,,SKC,0.01,VWS V14.01,2013-08-25 22:32:00,
2013-08-25 18:33:00,79.4,79.4,30.17,SSW,194,0.0,17.2,100,0.01,,SKC,0.01,VWS V14.01,2013-08-25 22:33:00,
2013-08-25 18:36:00,78.7,78.5,30.17,SSW,195,0.7,17.2,100,0.01,,SKC,0.01,VWS V14.01,2013-08-25 22:36:00,
2013-08-25 18:37:00,78.4,78.4,30.17,North,359,0.8,17.2,100,0.01,,SKC,0.01,VWS V14.01,2013-08-25 22:37:00,
2013-08-25 18:39:00,78.1,78.0,30.17,North,359,0.7,17.2,100,0.01,,SKC,0.01,VWS V14.01,2013-08-25 22:39:00,
2013-08-25 18:41:00,77.8,77.8,30.17,SSE,167,0.0,17.2,100,0.01,,SKC,0.01,VWS V14.01,2013-08-25 22:41:00,
2013-08-25 18:42:00,77.7,77.7,30.17,SSE,167,0.0,17.2,100,0.01,,SKC,0.01,VWS V14.01,2013-08-25 22:42:00,
2013-08-25 18:43:00,77.7,77.7,30.17,SSE,167,0.0,17.2,100,0.01,,SKC,0.01,VWS V14.01,2013-08-25 22:43:00,
2013-08-25 18:44:00,77.7,77.7,30.17,SSE,167,0.2,17.2,100,0.01,,SKC,0.01,VWS V14.01,2013-08-25 22:44:00,
2013-08-25 18:47:00,77.7,77.7,30.17,North,359,0.2,17.2,100,0.01,,SKC,0.01,VWS V14.01,2013-08-25 22:47:00,
2013-08-25 18:48:00,77.7,77.7,30.17,North,359,0.0,17.2,100,0.01,,SKC,0.01,VWS V14.01,2013-08-25 22:48:00,
2013-08-25 18:49:00,77.7,77.7,30.17,North,359,1.9,17.2,100,0.01,,SKC,0.01,VWS V14.01,2013-08-25 22:49:00,
2013-08-25 18:52:00,77.7,77.7,30.17,North,359,0.0,17.2,100,0.01,,SKC,0.01,VWS V14.01,2013-08-25 22:52:00,
2013-08-25 18:53:00,77.5,77.5,30.17,North,359,0.0,17.2,100,0.01,,SKC,0.01,VWS V14.01,2013-08-25 22:53:00,
2013-08-25 18:54:00,77.7,77.4,30.17,North,359,4.2,17.2,100,0.01,,SKC,0.01,VWS V14.01,2013-08-25 22:54:00,
2013-08-25 18:57:00,77.3,77.3,30.16,SW,215,0.0,17.2,100,0.01,,SKC,0.01,VWS V14.01,2013-08-25 22:57:00,
2013-08-25 18:58:00,77.3,77.3,30.16,SW,215,0.0,17.2,100,0.01,,SKC,0.01,VWS V14.01,2013-08-25 22:58:00,
2013-08-25 18:59:00,77.3,77.3,30.16,SW,215,0.0,17.2,100,0.01,,SKC,0.01,VWS V14.01,2013-08-25 22:59:00,
2013-08-25 19:02:00,77.2,77.2,30.16,SSW,202,7.4,17.2,100,0.01,,SKC,0.01,VWS V14.01,2013-08-25 23:02:00,
2013-08-25 19:03:00,77.2,77.2,30.16,SSW,193,4.2,17.2,100,0.01,,SKC,0.01,VWS V14.01,2013-08-25 23:03:00,
2013-08-25 19:04:00,77.2,77.2,30.16,North,359,1.0,17.2,100,0.01,,SKC,0.01,VWS V14.01,2013-08-25 23:04:00,
2013-08-25 19:08:00,77.3,77.3,30.16,South,188,4.6,17.2,100,0.01,,SKC,0.01,VWS V14.01,2013-08-25 23:08:00,
2013-08-25 19:09:00,77.3,77.3,30.16,North,359,0.0,17.2,100,0.01,,SKC,0.01,VWS V14.01,2013-08-25 23:09:00,
2013-08-25 19:10:00,77.3,77.3,30.16,North,359,0.0,17.2,100,0.01,,SKC,0.01,VWS V14.01,2013-08-25 23:10:00,
2013-08-25 19:13:00,77.3,77.3,30.16,North,359,0.0,17.2,100,0.01,,SKC,0.01,VWS V14.01,2013-08-25 23:13:00,
2013-08-25 19:14:00,77.3,77.4,30.16,South,170,4.8,17.2,100,0.01,,SKC,0.01,VWS V14.01,2013-08-25 23:14:00,
2013-08-25 19:15:00,77.4,77.4,30.16,South,187,1.4,17.2,100,0.01,,SKC,0.01,VWS V14.01,2013-08-25 23:15:00,
2013-08-25 19:18:00,77.4,77.4,30.16,North,359,0.0,17.2,100,0.01,,SKC,0.01,VWS V14.01,2013-08-25 23:18:00,
2013-08-25 19:19:00,77.3,77.3,30.16,North,359,0.0,17.2,100,0.01,,SKC,0.01,VWS V14.01,2013-08-25 23:19:00,
2013-08-25 19:20:00,77.4,77.4,30.16,North,359,3.6,17.2,100,0.01,,SKC,0.01,VWS V14.01,2013-08-25 23:20:00,
2013-08-25 19:23:00,77.4,77.5,30.16,SW,222,5.8,17.2,100,0.01,,SKC,0.01,VWS V14.01,2013-08-25 23:23:00,
2013-08-25 19:24:00,77.5,77.5,30.16,North,359,0.0,17.2,100,0.01,,SKC,0.01,VWS V14.01,2013-08-25 23:24:00,
2013-08-25 19:25:00,77.7,77.7,30.16,North,359,0.0,17.2,100,0.01,,SKC,0.01,VWS V14.01,2013-08-25 23:25:00,
2013-08-25 19:28:00,77.7,77.7,30.16,North,359,0.4,17.2,100,0.01,,SKC,0.01,VWS V14.01,2013-08-25 23:28:00,
2013-08-25 19:29:00,77.8,77.8,30.16,North,359,7.1,17.2,100,0.01,,SKC,0.01,VWS V14.01,2013-08-25 23:29:00,
2013-08-25 19:30:00,77.9,77.9,30.16,South,172,0.4,17.2,100,0.01,,SKC,0.01,VWS V14.01,2013-08-25 23:30:00,
2013-08-25 19:33:00,77.9,77.9,30.17,North,359,0.0,17.2,100,0.01,,SKC,0.01,VWS V14.01,2013-08-25 23:33:00,
2013-08-25 19:34:00,77.9,77.9,30.17,North,359,5.5,17.2,100,0.01,,SKC,0.01,VWS V14.01,2013-08-25 23:34:00,
2013-08-25 19:35:00,78.0,77.9,30.17,SSW,207,6.5,17.2,100,0.01,,SKC,0.01,VWS V14.01,2013-08-25 23:35:00,
2013-08-25 19:38:00,78.0,78.0,30.17,South,184,9.3,17.2,100,0.01,,SKC,0.01,VWS V14.01,2013-08-25 23:38:00,
2013-08-25 19:39:00,77.9,77.9,30.17,North,359,0.5,17.2,100,0.01,,SKC,0.01,VWS V14.01,2013-08-25 23:39:00,
2013-08-25 19:40:00,78.0,78.0,30.17,North,359,0.8,17.2,100,0.01,,SKC,0.01,VWS V14.01,2013-08-25 23:40:00,
2013-08-25 19:41:00,78.0,78.0,30.17,North,359,6.5,17.2,100,0.01,,SKC,0.01,VWS V14.01,2013-08-25 23:41:00,
2013-08-25 19:43:00,78.0,78.0,30.17,North,359,1.9,17.2,100,0.01,,SKC,0.01,VWS V14.01,2013-08-25 23:43:00,
2013-08-25 19:44:00,78.0,78.0,30.16,South,188,6.6,17.2,100,0.01,,SKC,0.01,VWS V14.01,2013-08-25 23:44:00,
2013-08-25 19:45:00,78.0,78.0,30.17,North,359,8.5,17.2,100,0.01,,SKC,0.01,VWS V14.01,2013-08-25 23:45:00,
2013-08-25 19:46:00,78.0,78.0,30.17,North,359,0.3,17.2,100,0.01,,SKC,0.01,VWS V14.01,2013-08-25 23:46:00,
2013-08-25 19:48:00,78.0,78.0,30.17,SSW,197,0.0,17.2,100,0.01,,SKC,0.01,VWS V14.01,2013-08-25 23:48:00,
2013-08-25 19:49:00,78.0,78.0,30.17,SSW,198,4.5,17.2,100,0.01,,SKC,0.01,VWS V14.01,2013-08-25 23:49:00,
2013-08-25 19:50:00,78.0,78.0,30.17,SSW,208,0.0,17.2,100,0.01,,SKC,0.01,VWS V14.01,2013-08-25 23:50:00,
2013-08-25 19:51:00,78.0,78.0,30.17,South,179,0.0,17.2,100,0.01,,SKC,0.01,VWS V14.01,2013-08-25 23:51:00,
2013-08-25 19:54:00,78.0,78.0,30.17,South,174,3.1,17.2,100,0.01,,SKC,0.01,VWS V14.01,2013-08-25 23:54:00,
2013-08-25 19:55:00,78.0,78.0,30.17,SW,214,3.5,17.2,100,0.01,,SKC,0.01,VWS V14.01,2013-08-25 23:55:00,
2013-08-25 19:56:00,78.0,77.9,30.17,South,186,0.0,17.2,100,0.01,,SKC,0.01,VWS V14.01,2013-08-25 23:56:00,
2013-08-25 19:59:00,77.9,77.9,30.17,SSW,210,0.0,17.2,100,0.01,,SKC,0.01,VWS V14.01,2013-08-25 23:59:00,
2013-08-25 20:00:00,77.9,77.9,30.17,SSW,210,0.0,17.2,100,0.01,,SKC,0.01,VWS V14.01,2013-08-26 00:00:00,
2013-08-25 20:01:00,77.9,77.9,30.17,SW,221,0.0,17.2,100,0.01,,SKC,0.01,VWS V14.01,2013-08-26 00:01:00,
2013-08-25 20:04:00,77.9,77.9,30.17,South,177,4.0,17.2,100,0.01,,SKC,0.01,VWS V14.01,2013-08-26 00:04:00,
2013-08-25 20:05:00,77.9,77.9,30.17,SSW,195,7.3,17.2,100,0.01,,SKC,0.01,VWS V14.01,2013-08-26 00:05:00,
2013-08-25 20:06:00,77.9,77.9,30.17,South,184,6.4,17.2,100,0.01,,SKC,0.01,VWS V14.01,2013-08-26 00:06:00,
2013-08-25 20:09:00,77.9,77.9,30.17,South,176,2.2,17.2,100,0.01,,SKC,0.01,VWS V14.01,2013-08-26 00:09:00,
2013-08-25 20:10:00,77.9,77.9,30.17,SSW,193,6.2,17.2,100,0.01,,SKC,0.01,VWS V14.01,2013-08-26 00:10:00,
2013-08-25 20:11:00,78.0,78.0,30.17,North,359,0.0,17.2,100,0.01,,SKC,0.01,VWS V14.01,2013-08-26 00:11:00,
2013-08-25 20:14:00,78.1,78.1,30.17,SW,228,3.5,17.2,100,0.01,,SKC,0.01,VWS V14.01,2013-08-26 00:14:00,
2013-08-25 20:15:00,78.1,78.1,30.18,North,359,9.4,17.2,100,0.01,,SKC,0.01,VWS V14.01,2013-08-26 00:15:00,
2013-08-25 20:16:00,78.0,78.0,30.17,South,174,6.3,17.2,100,0.01,,SKC,0.01,VWS V14.01,2013-08-26 00:16:00,
2013-08-25 20:19:00,78.2,78.2,30.17,WSW,238,0.0,17.2,100,0.01,,SKC,0.01,VWS V14.01,2013-08-26 00:19:00,
2013-08-25 20:20:00,78.2,78.2,30.17,South,172,7.4,17.2,100,0.01,,SKC,0.01,VWS V14.01,2013-08-26 00:20:00,
2013-08-25 20:21:00,78.2,78.2,30.17,SSE,163,8.8,17.2,100,0.01,,SKC,0.01,VWS V14.01,2013-08-26 00:21:00,
2013-08-25 20:22:00,78.3,78.3,30.17,SSE,165,0.0,17.2,100,0.01,,SKC,0.01,VWS V14.01,2013-08-26 00:22:00,
2013-08-25 20:24:00,78.3,78.3,30.17,North,359,1.2,17.2,100,0.01,,SKC,0.01,VWS V14.01,2013-08-26 00:24:00,
2013-08-25 20:25:00,78.3,78.4,30.17,SSW,208,6.2,17.2,100,0.01,,SKC,0.01,VWS V14.01,2013-08-26 00:25:00,
2013-08-25 20:26:00,78.4,78.4,30.17,North,359,3.3,17.2,100,0.01,,SKC,0.01,VWS V14.01,2013-08-26 00:26:00,
2013-08-25 20:27:00,78.3,78.3,30.17,SW,219,1.5,17.2,100,0.01,,SKC,0.01,VWS V14.01,2013-08-26 00:27:00,
2013-08-25 20:30:00,78.4,78.4,30.17,SSW,201,0.0,17.2,100,0.01,,SKC,0.01,VWS V14.01,2013-08-26 00:30:00,
2013-08-25 20:31:00,78.4,78.4,30.17,North,359,1.2,17.2,100,0.01,,SKC,0.01,VWS V14.01,2013-08-26 00:31:00,
2013-08-25 20:32:00,78.5,78.5,30.17,North,359,0.0,17.2,100,0.01,,SKC,0.01,VWS V14.01,2013-08-26 00:32:00,
2013-08-25 20:35:00,78.5,78.5,30.17,South,179,7.7,17.2,100,0.01,,SKC,0.01,VWS V14.01,2013-08-26 00:35:00,
2013-08-25 20:36:00,78.5,78.5,30.17,SSW,201,6.9,17.2,100,0.01,,SKC,0.01,VWS V14.01,2013-08-26 00:36:00,
2013-08-25 20:37:00,78.5,78.5,30.17,SSW,207,0.0,17.2,100,0.01,,SKC,0.01,VWS V14.01,2013-08-26 00:37:00,
2013-08-25 20:40:00,78.5,78.5,30.17,North,359,1.0,17.2,100,0.01,,SKC,0.01,VWS V14.01,2013-08-26 00:40:00,
2013-08-25 20:41:00,78.7,78.7,30.17,North,359,7.9,17.2,100,0.01,,SKC,0.01,VWS V14.01,2013-08-26 00:41:00,
2013-08-25 20:43:00,78.7,78.7,30.17,North,359,0.0,17.2,100,0.01,,SKC,0.01,VWS V14.01,2013-08-26 00:43:00,
2013-08-25 20:45:00,78.7,78.7,30.17,North,359,0.0,17.2,100,0.01,,SKC,0.01,VWS V14.01,2013-08-26 00:45:00,
2013-08-25 20:46:00,78.7,78.7,30.17,North,359,1.8,17.2,100,0.01,,SKC,0.01,VWS V14.01,2013-08-26 00:46:00,
2013-08-25 20:48:00,78.7,78.7,30.17,North,359,3.3,17.2,100,0.01,,SKC,0.01,VWS V14.01,2013-08-26 00:48:00,
2013-08-25 20:51:00,78.5,78.5,30.18,North,359,0.0,17.2,100,0.01,,SKC,0.01,VWS V14.01,2013-08-26 00:51:00,
2013-08-25 20:52:00,78.5,78.5,30.18,SW,217,0.7,17.2,100,0.01,,SKC,0.01,VWS V14.01,2013-08-26 00:52:00,
2013-08-25 20:53:00,78.5,78.4,30.18,South,183,0.2,17.2,100,0.01,,SKC,0.01,VWS V14.01,2013-08-26 00:53:00,
2013-08-25 20:56:00,78.7,78.7,30.18,North,359,9.1,17.2,100,0.01,,SKC,0.01,VWS V14.01,2013-08-26 00:56:00,
2013-08-25 20:57:00,78.5,78.5,30.18,North,359,0.0,17.2,100,0.01,,SKC,0.01,VWS V14.01,2013-08-26 00:57:00,
2013-08-25 20:58:00,78.5,78.5,30.18,North,359,0.4,17.2,100,0.01,,SKC,0.01,VWS V14.01,2013-08-26 00:58:00,
2013-08-25 21:01:00,78.5,78.5,30.18,South,187,0.6,17.2,100,0.01,,SKC,0.01,VWS V14.01,2013-08-26 01:01:00,
2013-08-25 21:02:00,78.5,78.5,30.18,North,359,8.6,17.2,100,0.01,,SKC,0.01,VWS V14.01,2013-08-26 01:02:00,
2013-08-25 21:03:00,78.7,78.7,30.18,SSW,205,0.0,17.2,100,0.01,,SKC,0.01,VWS V14.01,2013-08-26 01:03:00,
2013-08-25 21:06:00,78.8,78.8,30.18,North,359,1.8,17.2,100,0.01,,SKC,0.01,VWS V14.01,2013-08-26 01:06:00,
2013-08-25 21:07:00,78.7,78.7,30.18,North,359,0.5,17.2,100,0.01,,SKC,0.01,VWS V14.01,2013-08-26 01:07:00,
2013-08-25 21:08:00,78.5,78.5,30.18,North,359,0.7,17.2,100,0.01,,SKC,0.01,VWS V14.01,2013-08-26 01:08:00,
2013-08-25 21:11:00,78.7,78.7,30.18,SSE,162,1.1,17.2,100,0.01,,SKC,0.01,VWS V14.01,2013-08-26 01:11:00,
2013-08-25 21:13:00,78.7,78.7,30.18,South,190,3.0,17.2,100,0.01,,SKC,0.01,VWS V14.01,2013-08-26 01:13:00,
2013-08-25 21:16:00,78.7,78.7,30.18,SSE,165,0.0,17.2,100,0.01,,SKC,0.01,VWS V14.01,2013-08-26 01:16:00,
2013-08-25 21:17:00,78.7,78.7,30.18,SSW,212,8.5,17.2,100,0.01,,SKC,0.01,VWS V14.01,2013-08-26 01:17:00,
2013-08-25 21:18:00,78.7,78.7,30.18,SW,221,5.4,17.2,100,0.01,,SKC,0.01,VWS V14.01,2013-08-26 01:18:00,
2013-08-25 21:19:00,78.7,78.7,30.18,North,359,1.1,17.2,100,0.01,,SKC,0.01,VWS V14.01,2013-08-26 01:19:00,
2013-08-25 21:21:00,78.7,78.7,30.18,South,174,0.0,17.2,100,0.01,,SKC,0.01,VWS V14.01,2013-08-26 01:21:00,
2013-08-25 21:22:00,78.7,78.7,30.18,South,174,0.0,17.2,100,0.01,,SKC,0.01,VWS V14.01,2013-08-26 01:22:00,
2013-08-25 21:23:00,78.8,78.8,30.18,South,174,0.6,17.2,100,0.01,,SKC,0.01,VWS V14.01,2013-08-26 01:23:00,
2013-08-25 21:24:00,78.7,78.7,30.18,North,359,1.6,17.2,100,0.01,,SKC,0.01,VWS V14.01,2013-08-26 01:24:00,
2013-08-25 21:26:00,78.7,78.7,30.18,South,180,6.6,17.2,100,0.01,,SKC,0.01,VWS V14.01,2013-08-26 01:26:00,
2013-08-25 21:27:00,78.7,78.7,30.18,South,186,4.0,17.2,100,0.01,,SKC,0.01,VWS V14.01,2013-08-26 01:27:00,
2013-08-25 21:28:00,78.7,78.7,30.18,North,359,0.0,17.2,100,0.01,,SKC,0.01,VWS V14.01,2013-08-26 01:28:00,
2013-08-25 21:29:00,78.7,78.7,30.18,North,359,0.0,17.2,100,0.01,,SKC,0.01,VWS V14.01,2013-08-26 01:29:00,
2013-08-25 21:31:00,78.7,78.7,30.18,North,359,0.2,17.2,100,0.01,,SKC,0.01,VWS V14.01,2013-08-26 01:31:00,
2013-08-25 21:32:00,78.7,78.7,30.18,North,359,0.2,17.2,100,0.01,,SKC,0.01,VWS V14.01,2013-08-26 01:32:00,
2013-08-25 21:34:00,78.7,78.7,30.18,South,191,4.3,17.2,100,0.01,,SKC,0.01,VWS V14.01,2013-08-26 01:34:00,
2013-08-25 21:37:00,78.5,78.5,30.18,North,359,0.0,17.2,100,0.01,,SKC,0.01,VWS V14.01,2013-08-26 01:37:00,
2013-08-25 21:39:00,78.4,78.4,30.18,South,190,5.2,17.2,100,0.01,,SKC,0.01,VWS V14.01,2013-08-26 01:39:00,
2013-08-25 21:42:00,78.5,78.5,30.18,SSW,202,6.5,17.2,100,0.01,,SKC,0.01,VWS V14.01,2013-08-26 01:42:00,
2013-08-25 21:44:00,78.5,78.5,30.18,North,359,0.3,17.2,100,0.01,,SKC,0.01,VWS V14.01,2013-08-26 01:44:00,
2013-08-25 21:47:00,78.5,78.5,30.18,SSW,195,0.0,17.2,100,0.01,,SKC,0.01,VWS V14.01,2013-08-26 01:47:00,
2013-08-25 21:48:00,78.5,78.5,30.18,North,359,0.0,17.2,100,0.01,,SKC,0.01,VWS V14.01,2013-08-26 01:48:00,
2013-08-25 21:49:00,78.5,78.5,30.18,South,172,0.0,17.2,100,0.01,,SKC,0.01,VWS V14.01,2013-08-26 01:49:00,
2013-08-25 21:52:00,78.5,78.5,30.18,North,359,8.1,17.2,100,0.01,,SKC,0.01,VWS V14.01,2013-08-26 01:52:00,
2013-08-25 21:54:00,78.7,78.7,30.18,North,359,0.0,17.2,100,0.01,,SKC,0.01,VWS V14.01,2013-08-26 01:54:00,
2013-08-25 21:57:00,78.8,78.8,30.18,North,359,4.6,17.2,100,0.01,,SKC,0.01,VWS V14.01,2013-08-26 01:57:00,
2013-08-25 21:59:00,78.7,78.7,30.18,North,359,0.0,17.2,100,0.01,,SKC,0.01,VWS V14.01,2013-08-26 01:59:00,
2013-08-25 22:03:00,78.7,78.7,30.18,SSW,212,6.3,17.2,100,0.01,,SKC,0.01,VWS V14.01,2013-08-26 02:03:00,
2013-08-25 22:04:00,78.5,78.5,30.19,South,186,0.0,17.2,100,0.01,,SKC,0.01,VWS V14.01,2013-08-26 02:04:00,
2013-08-25 22:08:00,78.5,78.5,30.19,SSE,167,5.8,17.2,100,0.01,,SKC,0.01,VWS V14.01,2013-08-26 02:08:00,
2013-08-25 22:09:00,78.5,78.5,30.19,SSE,167,0.0,17.2,100,0.01,,SKC,0.01,VWS V14.01,2013-08-26 02:09:00,
2013-08-25 22:10:00,78.7,78.7,30.19,SSW,198,0.0,17.2,100,0.01,,SKC,0.01,VWS V14.01,2013-08-26 02:10:00,
2013-08-25 22:13:00,78.7,78.7,30.19,North,359,0.2,17.2,100,0.01,,SKC,0.01,VWS V14.01,2013-08-26 02:13:00,
2013-08-25 22:14:00,78.7,78.7,30.19,North,359,0.0,17.2,100,0.01,,SKC,0.01,VWS V14.01,2013-08-26 02:14:00,
2013-08-25 22:15:00,78.7,78.7,30.19,North,359,0.8,17.2,100,0.01,,SKC,0.01,VWS V14.01,2013-08-26 02:15:00,
2013-08-25 22:18:00,78.8,78.8,30.19,North,359,0.0,17.2,100,0.01,,SKC,0.01,VWS V14.01,2013-08-26 02:18:00,
2013-08-25 22:19:00,78.8,78.8,30.19,North,359,0.0,17.2,100,0.01,,SKC,0.01,VWS V14.01,2013-08-26 02:19:00,
2013-08-25 22:20:00,78.8,78.8,30.19,North,359,2.1,17.2,100,0.01,,SKC,0.01,VWS V14.01,2013-08-26 02:20:00,
2013-08-25 22:23:00,78.8,78.8,30.19,North,359,0.0,17.2,100,0.01,,SKC,0.01,VWS V14.01,2013-08-26 02:23:00,
2013-08-25 22:24:00,78.8,78.8,30.20,North,359,1.5,17.2,100,0.01,,SKC,0.01,VWS V14.01,2013-08-26 02:24:00,
2013-08-25 22:25:00,78.8,78.8,30.20,SSW,193,2.0,17.2,100,0.01,,SKC,0.01,VWS V14.01,2013-08-26 02:25:00,
2013-08-25 22:28:00,78.8,78.8,30.20,North,359,0.7,17.2,100,0.01,,SKC,0.01,VWS V14.01,2013-08-26 02:28:00,
2013-08-25 22:29:00,78.8,78.9,30.20,North,359,0.0,17.2,100,0.01,,SKC,0.01,VWS V14.01,2013-08-26 02:29:00,
2013-08-25 22:30:00,78.9,78.9,30.20,North,359,0.0,17.2,100,0.01,,SKC,0.01,VWS V14.01,2013-08-26 02:30:00,
2013-08-25 22:33:00,78.9,78.8,30.20,SSW,197,0.0,17.2,100,0.01,,SKC,0.01,VWS V14.01,2013-08-26 02:33:00,
2013-08-25 22:34:00,78.9,78.9,30.20,North,359,0.0,17.2,100,0.01,,SKC,0.01,VWS V14.01,2013-08-26 02:34:00,
2013-08-25 22:35:00,78.9,78.9,30.20,North,359,2.5,17.2,100,0.01,,SKC,0.01,VWS V14.01,2013-08-26 02:35:00,
2013-08-25 22:39:00,78.9,78.9,30.20,South,172,8.6,17.2,100,0.01,,SKC,0.01,VWS V14.01,2013-08-26 02:39:00,
2013-08-25 22:40:00,78.9,78.9,30.20,South,188,0.7,17.2,100,0.01,,SKC,0.01,VWS V14.01,2013-08-26 02:40:00,
2013-08-25 22:41:00,78.9,78.9,30.20,SSW,201,6.3,17.2,100,0.01,,SKC,0.01,VWS V14.01,2013-08-26 02:41:00,
2013-08-25 22:44:00,79.0,79.0,30.20,South,169,0.0,17.2,100,0.01,,SKC,0.01,VWS V14.01,2013-08-26 02:44:00,
2013-08-25 22:45:00,79.1,79.1,30.20,South,169,0.0,17.2,100,0.01,,SKC,0.01,VWS V14.01,2013-08-26 02:45:00,
2013-08-25 22:46:00,79.1,79.1,30.20,North,359,0.4,17.2,100,0.01,,SKC,0.01,VWS V14.01,2013-08-26 02:46:00,
2013-08-25 22:49:00,79.0,79.0,30.20,South,188,2.7,17.2,100,0.01,,SKC,0.01,VWS V14.01,2013-08-26 02:49:00,
2013-08-25 22:50:00,79.0,79.0,30.20,SSW,194,0.0,17.2,100,0.01,,SKC,0.01,VWS V14.01,2013-08-26 02:50:00,
2013-08-25 22:51:00,79.0,79.0,30.20,SSW,194,6.6,17.2,100,0.01,,SKC,0.01,VWS V14.01,2013-08-26 02:51:00,
2013-08-25 22:54:00,79.1,79.1,30.20,North,359,8.3,17.2,100,0.01,,SKC,0.01,VWS V14.01,2013-08-26 02:54:00,
2013-08-25 22:55:00,79.0,79.0,30.20,South,188,3.4,17.2,100,0.01,,SKC,0.01,VWS V14.01,2013-08-26 02:55:00,
2013-08-25 22:56:00,79.0,79.0,30.20,SW,222,5.2,17.2,100,0.01,,SKC,0.01,VWS V14.01,2013-08-26 02:56:00,
2013-08-25 22:57:00,79.0,79.0,30.20,South,177,3.5,17.2,100,0.01,,SKC,0.01,VWS V14.01,2013-08-26 02:57:00,
2013-08-25 22:59:00,78.9,78.9,30.20,South,181,7.5,17.2,100,0.01,,SKC,0.01,VWS V14.01,2013-08-26 02:59:00,
2013-08-25 23:00:00,78.9,78.9,30.20,SSE,159,3.4,17.2,100,0.01,,SKC,0.01,VWS V14.01,2013-08-26 03:00:00,
2013-08-25 23:01:00,78.9,78.9,30.20,SSE,166,2.8,17.2,100,0.01,,SKC,0.01,VWS V14.01,2013-08-26 03:01:00,
2013-08-25 23:02:00,78.9,78.9,30.20,SSE,166,5.7,17.2,100,0.01,,SKC,0.01,VWS V14.01,2013-08-26 03:02:00,
2013-08-25 23:04:00,79.0,79.0,30.20,South,170,4.7,17.2,100,0.01,,SKC,0.01,VWS V14.01,2013-08-26 03:04:00,
2013-08-25 23:05:00,79.0,79.0,30.20,SSE,158,3.2,17.2,100,0.01,,SKC,0.01,VWS V14.01,2013-08-26 03:05:00,
2013-08-25 23:06:00,79.1,79.1,30.20,North,359,0.4,17.2,100,0.01,,SKC,0.01,VWS V14.01,2013-08-26 03:06:00,
2013-08-25 23:07:00,79.0,79.0,30.20,SSW,200,3.5,17.2,100,0.01,,SKC,0.01,VWS V14.01,2013-08-26 03:07:00,
2013-08-25 23:08:00,79.2,79.1,30.20,North,359,0.4,17.2,100,0.01,,SKC,0.01,VWS V14.01,2013-08-26 03:08:00,
2013-08-25 23:09:00,79.1,79.1,30.20,South,184,2.1,17.2,100,0.01,,SKC,0.01,VWS V14.01,2013-08-26 03:09:00,
2013-08-25 23:10:00,79.1,79.1,30.20,South,176,3.2,17.2,100,0.01,,SKC,0.01,VWS V14.01,2013-08-26 03:10:00,
2013-08-25 23:11:00,79.2,79.2,30.21,South,187,9.5,17.2,100,0.01,,SKC,0.01,VWS V14.01,2013-08-26 03:11:00,
2013-08-25 23:12:00,79.2,79.2,30.20,South,186,3.2,17.2,100,0.01,,SKC,0.01,VWS V14.01,2013-08-26 03:12:00,
2013-08-25 23:14:00,79.1,79.1,30.20,South,191,7.6,17.2,100,0.01,,SKC,0.01,VWS V14.01,2013-08-26 03:14:00,
2013-08-25 23:15:00,79.1,79.1,30.20,South,190,0.0,17.2,100,0.01,,SKC,0.01,VWS V14.01,2013-08-26 03:15:00,
2013-08-25 23:17:00,79.2,79.2,30.20,North,359,0.0,17.2,100,0.01,,SKC,0.01,VWS V14.01,2013-08-26 03:17:00,
2013-08-25 23:19:00,79.2,79.2,30.20,South,181,8.0,17.2,100,0.01,,SKC,0.01,VWS V14.01,2013-08-26 03:19:00,
2013-08-25 23:20:00,79.2,79.2,30.20,North,359,2.1,17.2,100,0.01,,SKC,0.01,VWS V14.01,2013-08-26 03:20:00,
2013-08-25 23:22:00,79.2,79.3,30.20,South,176,0.0,17.2,100,0.01,,SKC,0.01,VWS V14.01,2013-08-26 03:22:00,
2013-08-25 23:23:00,79.2,79.2,30.20,South,176,0.0,17.2,100,0.01,,SKC,0.01,VWS V14.01,2013-08-26 03:23:00,
2013-08-25 23:24:00,79.2,79.3,30.20,North,359,0.2,17.2,100,0.01,,SKC,0.01,VWS V14.01,2013-08-26 03:24:00,
2013-08-25 23:25:00,79.3,79.3,30.20,North,359,0.2,17.2,100,0.01,,SKC,0.01,VWS V14.01,2013-08-26 03:25:00,
2013-08-25 23:27:00,79.2,79.2,30.20,North,359,0.0,17.2,100,0.01,,SKC,0.01,VWS V14.01,2013-08-26 03:27:00,
2013-08-25 23:29:00,79.2,79.2,30.20,North,359,0.0,17.2,100,0.01,,SKC,0.01,VWS V14.01,2013-08-26 03:29:00,
2013-08-25 23:30:00,79.2,79.2,30.20,North,359,0.0,17.2,100,0.01,,SKC,0.01,VWS V14.01,2013-08-26 03:30:00,
2013-08-25 23:32:00,79.3,79.3,30.20,North,359,0.2,17.2,100,0.01,,SKC,0.01,VWS V14.01,2013-08-26 03:32:00,
2013-08-25 23:33:00,79.3,79.2,30.20,North,359,0.0,17.2,100,0.01,,SKC,0.01,VWS V14.01,2013-08-26 03:33:00,
2013-08-25 23:35:00,79.3,79.2,30.20,North,359,0.0,17.2,100,0.01,,SKC,0.01,VWS V14.01,2013-08-26 03:35:00,
2013-08-25 23:37:00,79.2,79.2,30.20,North,359,0.2,17.2,100,0.01,,SKC,0.01,VWS V14.01,2013-08-26 03:37:00,
2013-08-25 23:38:00,79.2,79.2,30.20,North,359,0.0,17.2,100,0.01,,SKC,0.01,VWS V14.01,2013-08-26 03:38:00,
2013-08-25 23:40:00,79.2,79.2,30.20,SSW,194,0.0,17.2,100,0.01,,SKC,0.01,VWS V14.01,2013-08-26 03:40:00,
2013-08-25 23:42:00,79.2,79.2,30.20,North,359,0.0,17.2,100,0.01,,SKC,0.01,VWS V14.01,2013-08-26 03:42:00,
2013-08-25 23:43:00,79.2,79.2,30.20,North,359,1.6,17.2,100,0.01,,SKC,0.01,VWS V14.01,2013-08-26 03:43:00,
2013-08-25 23:45:00,79.3,79.3,30.20,South,169,0.0,17.2,100,0.01,,SKC,0.01,VWS V14.01,2013-08-26 03:45:00,
2013-08-25 23:46:00,79.3,79.3,30.20,North,359,0.0,17.2,100,0.01,,SKC,0.01,VWS V14.01,2013-08-26 03:46:00,
2013-08-25 23:47:00,79.2,79.2,30.20,North,359,0.0,17.2,100,0.01,,SKC,0.01,VWS V14.01,2013-08-26 03:47:00,
2013-08-25 23:48:00,79.2,79.2,30.20,North,359,0.0,17.2,100,0.01,,SKC,0.01,VWS V14.01,2013-08-26 03:48:00,
2013-08-25 23:50:00,79.2,79.2,30.20,North,359,0.0,17.2,100,0.01,,SKC,0.01,VWS V14.01,2013-08-26 03:50:00,
2013-08-25 23:51:00,79.2,79.2,30.20,North,359,0.0,17.2,100,0.01,,SKC,0.01,VWS V14.01,2013-08-26 03:51:00,
2013-08-25 23:52:00,79.2,79.2,30.20,North,359,0.0,17.2,100,0.01,,SKC,0.01,VWS V14.01,2013-08-26 03:52:00,
2013-08-25 23:53:00,79.2,79.2,30.20,North,359,8.6,17.2,100,0.01,,SKC,0.01,VWS V14.01,2013-08-26 03:53:00,
2013-08-25 23:55:00,79.2,79.2,30.20,North,359,0.6,17.2,100,0.01,,SKC,0.01,VWS V14.01,2013-08-26 03:55:00,
2013-08-25 23:56:00,79.3,79.3,30.20,SW,228,7.0,17.2,100,0.01,,SKC,0.01,VWS V14.01,2013-08-26 03:56:00,
2013-08-25 23:57:00,79.2,79.2,30.20,SSE,166,0.0,17.2,100,0.01,,SKC,0.01,VWS V14.01,2013-08-26 03:57:00,
2013-08-25 23:58:00,79.2,79.2,30.20,North,359,0.0,17.2,100,0.01,,SKC,0.01,VWS V14.01,2013-08-26 03:58:00,